<?xml version="1.0" encoding="UTF-8" standalone="no" ?>
<gpx xmlns="http://www.topografix.com/GPX/1/1" xmlns:xsi="http://www.w3.org/2001/XMLSchema-instance" xsi:schemaLocation="http://www.topografix.com/GPX/1/1 http://www.topografix.com/GPX/1/1/gpx.xsd" version="1.1" creator="VisuGPX - https://www.visugpx.com">
  <metadata>
    <name>Rando Val d'Azun samedi 14 sept 24</name>
    <desc><![CDATA[Rando cheval du 14 septembre 2024 Arrens Marsous ]]></desc>
  </metadata>
  <wpt lat="42.99002" lon="-0.21887">
    <ele>1453.9</ele>
    <name><![CDATA[Repas du midi]]></name>
    <type><![CDATA[picnic]]></type>
  </wpt>
  <wpt lat="42.96362" lon="-0.19771">
    <ele>850</ele>
    <name><![CDATA[Départ/Arrivée]]></name>
  </wpt>
  <wpt lat="42.98023" lon="-0.19668">
    <ele>1077.2</ele>
    <name><![CDATA[P1]]></name>
    <type><![CDATA[__]]></type>
  </wpt>
  <wpt lat="42.98305" lon="-0.24067">
    <ele>1551.7</ele>
    <name><![CDATA[P2]]></name>
    <type><![CDATA[__]]></type>
  </wpt>
  <wpt lat="42.96132" lon="-0.26105">
    <ele>1471</ele>
    <name><![CDATA[P3]]></name>
    <type><![CDATA[__]]></type>
  </wpt>
  <wpt lat="42.97373" lon="-0.22728">
    <ele>1248.3</ele>
    <name><![CDATA[P4]]></name>
    <type><![CDATA[__]]></type>
  </wpt>
  <trk>
    <name><![CDATA[Rando Val d'Azun]]></name>
    <extensions>
      <line xmlns="http://www.topografix.com/GPX/gpx_style/0/2">
        <color>0000FF</color>
        <opacity>0.55</opacity>
        <width>2</width>
        <dasharray>2</dasharray>
      </line>
    </extensions>
    <trkseg>
      <trkpt lat="42.96346" lon="-0.1975">
        <ele>850.5</ele>
        <time>2023-08-06T09:38:44+02:00</time>
      </trkpt>
      <trkpt lat="42.96329" lon="-0.1973">
        <ele>909</ele>
        <time>2023-08-06T09:39:02+02:00</time>
      </trkpt>
      <trkpt lat="42.96312" lon="-0.19708">
        <ele>911</ele>
        <time>2023-08-06T09:39:16+02:00</time>
      </trkpt>
      <trkpt lat="42.96295" lon="-0.19686">
        <ele>909</ele>
        <time>2023-08-06T09:39:29+02:00</time>
      </trkpt>
      <trkpt lat="42.96274" lon="-0.1967">
        <ele>907</ele>
        <time>2023-08-06T09:39:44+02:00</time>
      </trkpt>
      <trkpt lat="42.96255" lon="-0.19651">
        <ele>910</ele>
        <time>2023-08-06T09:39:59+02:00</time>
      </trkpt>
      <trkpt lat="42.96234" lon="-0.19633">
        <ele>908</ele>
        <time>2023-08-06T09:40:37+02:00</time>
      </trkpt>
      <trkpt lat="42.96245" lon="-0.19611">
        <ele>908</ele>
        <time>2023-08-06T09:41:58+02:00</time>
      </trkpt>
      <trkpt lat="42.96255" lon="-0.19582">
        <ele>907</ele>
        <time>2023-08-06T09:42:13+02:00</time>
      </trkpt>
      <trkpt lat="42.96261" lon="-0.19552">
        <ele>908</ele>
        <time>2023-08-06T09:42:28+02:00</time>
      </trkpt>
      <trkpt lat="42.9627" lon="-0.19524">
        <ele>909</ele>
        <time>2023-08-06T09:42:42+02:00</time>
      </trkpt>
      <trkpt lat="42.96284" lon="-0.195">
        <ele>909</ele>
        <time>2023-08-06T09:42:57+02:00</time>
      </trkpt>
      <trkpt lat="42.96302" lon="-0.1948">
        <ele>911</ele>
        <time>2023-08-06T09:43:13+02:00</time>
      </trkpt>
      <trkpt lat="42.96318" lon="-0.19458">
        <ele>912</ele>
        <time>2023-08-06T09:43:27+02:00</time>
      </trkpt>
      <trkpt lat="42.96337" lon="-0.1944">
        <ele>911</ele>
        <time>2023-08-06T09:43:41+02:00</time>
      </trkpt>
      <trkpt lat="42.96372" lon="-0.19401">
        <ele>913</ele>
        <time>2023-08-06T09:44:09+02:00</time>
      </trkpt>
      <trkpt lat="42.96388" lon="-0.19378">
        <ele>919</ele>
        <time>2023-08-06T09:44:25+02:00</time>
      </trkpt>
      <trkpt lat="42.96409" lon="-0.19365">
        <ele>919</ele>
        <time>2023-08-06T09:44:43+02:00</time>
      </trkpt>
      <trkpt lat="42.9643" lon="-0.19349">
        <ele>933</ele>
        <time>2023-08-06T09:45:02+02:00</time>
      </trkpt>
      <trkpt lat="42.96449" lon="-0.1933">
        <ele>931</ele>
        <time>2023-08-06T09:45:15+02:00</time>
      </trkpt>
      <trkpt lat="42.96473" lon="-0.19331">
        <ele>923</ele>
        <time>2023-08-06T09:45:31+02:00</time>
      </trkpt>
      <trkpt lat="42.96496" lon="-0.19329">
        <ele>927</ele>
        <time>2023-08-06T09:45:46+02:00</time>
      </trkpt>
      <trkpt lat="42.96518" lon="-0.19335">
        <ele>927</ele>
        <time>2023-08-06T09:46:02+02:00</time>
      </trkpt>
      <trkpt lat="42.96541" lon="-0.19347">
        <ele>922</ele>
        <time>2023-08-06T09:46:17+02:00</time>
      </trkpt>
      <trkpt lat="42.96562" lon="-0.1936">
        <ele>920</ele>
        <time>2023-08-06T09:46:31+02:00</time>
      </trkpt>
      <trkpt lat="42.96586" lon="-0.1936">
        <ele>917</ele>
        <time>2023-08-06T09:46:43+02:00</time>
      </trkpt>
      <trkpt lat="42.96608" lon="-0.19358">
        <ele>914</ele>
        <time>2023-08-06T09:46:58+02:00</time>
      </trkpt>
      <trkpt lat="42.96629" lon="-0.19345">
        <ele>917</ele>
        <time>2023-08-06T09:47:14+02:00</time>
      </trkpt>
      <trkpt lat="42.96649" lon="-0.19328">
        <ele>917</ele>
        <time>2023-08-06T09:47:27+02:00</time>
      </trkpt>
      <trkpt lat="42.96659" lon="-0.19299">
        <ele>910</ele>
        <time>2023-08-06T09:47:43+02:00</time>
      </trkpt>
      <trkpt lat="42.96681" lon="-0.19289">
        <ele>909</ele>
        <time>2023-08-06T09:48:11+02:00</time>
      </trkpt>
      <trkpt lat="42.96701" lon="-0.19301">
        <ele>904</ele>
        <time>2023-08-06T09:48:35+02:00</time>
      </trkpt>
      <trkpt lat="42.96722" lon="-0.19317">
        <ele>905</ele>
        <time>2023-08-06T09:48:49+02:00</time>
      </trkpt>
      <trkpt lat="42.96745" lon="-0.19318">
        <ele>905</ele>
        <time>2023-08-06T09:49:00+02:00</time>
      </trkpt>
      <trkpt lat="42.96766" lon="-0.19303">
        <ele>901</ele>
        <time>2023-08-06T09:49:10+02:00</time>
      </trkpt>
      <trkpt lat="42.96779" lon="-0.19277">
        <ele>902</ele>
        <time>2023-08-06T09:49:26+02:00</time>
      </trkpt>
      <trkpt lat="42.96788" lon="-0.19246">
        <ele>900</ele>
        <time>2023-08-06T09:49:41+02:00</time>
      </trkpt>
      <trkpt lat="42.96805" lon="-0.19223">
        <ele>900</ele>
        <time>2023-08-06T09:49:55+02:00</time>
      </trkpt>
      <trkpt lat="42.96825" lon="-0.19205">
        <ele>898</ele>
        <time>2023-08-06T09:50:10+02:00</time>
      </trkpt>
      <trkpt lat="42.96843" lon="-0.19187">
        <ele>898</ele>
        <time>2023-08-06T09:50:23+02:00</time>
      </trkpt>
      <trkpt lat="42.96859" lon="-0.19165">
        <ele>904</ele>
        <time>2023-08-06T09:50:39+02:00</time>
      </trkpt>
      <trkpt lat="42.96878" lon="-0.19146">
        <ele>908</ele>
        <time>2023-08-06T09:50:56+02:00</time>
      </trkpt>
      <trkpt lat="42.96895" lon="-0.19124">
        <ele>901</ele>
        <time>2023-08-06T09:51:09+02:00</time>
      </trkpt>
      <trkpt lat="42.96915" lon="-0.19106">
        <ele>899</ele>
        <time>2023-08-06T09:51:23+02:00</time>
      </trkpt>
      <trkpt lat="42.96929" lon="-0.1908">
        <ele>900</ele>
        <time>2023-08-06T09:51:37+02:00</time>
      </trkpt>
      <trkpt lat="42.96937" lon="-0.1905">
        <ele>899</ele>
        <time>2023-08-06T09:51:52+02:00</time>
      </trkpt>
      <trkpt lat="42.96949" lon="-0.19024">
        <ele>902</ele>
        <time>2023-08-06T09:52:07+02:00</time>
      </trkpt>
      <trkpt lat="42.96972" lon="-0.19024">
        <ele>908</ele>
        <time>2023-08-06T09:52:25+02:00</time>
      </trkpt>
      <trkpt lat="42.96992" lon="-0.19042">
        <ele>908</ele>
        <time>2023-08-06T09:52:38+02:00</time>
      </trkpt>
      <trkpt lat="42.97011" lon="-0.1906">
        <ele>912</ele>
        <time>2023-08-06T09:52:51+02:00</time>
      </trkpt>
      <trkpt lat="42.97031" lon="-0.1908">
        <ele>912</ele>
        <time>2023-08-06T09:53:03+02:00</time>
      </trkpt>
      <trkpt lat="42.97049" lon="-0.19098">
        <ele>915</ele>
        <time>2023-08-06T09:53:14+02:00</time>
      </trkpt>
      <trkpt lat="42.97069" lon="-0.19115">
        <ele>915</ele>
        <time>2023-08-06T09:53:25+02:00</time>
      </trkpt>
      <trkpt lat="42.97088" lon="-0.19133">
        <ele>917</ele>
        <time>2023-08-06T09:53:36+02:00</time>
      </trkpt>
      <trkpt lat="42.97109" lon="-0.1915">
        <ele>920</ele>
        <time>2023-08-06T09:53:47+02:00</time>
      </trkpt>
      <trkpt lat="42.9713" lon="-0.19167">
        <ele>922</ele>
        <time>2023-08-06T09:53:59+02:00</time>
      </trkpt>
      <trkpt lat="42.97152" lon="-0.19182">
        <ele>920</ele>
        <time>2023-08-06T09:54:10+02:00</time>
      </trkpt>
      <trkpt lat="42.97171" lon="-0.19199">
        <ele>918</ele>
        <time>2023-08-06T09:54:21+02:00</time>
      </trkpt>
      <trkpt lat="42.97188" lon="-0.19224">
        <ele>919</ele>
        <time>2023-08-06T09:54:32+02:00</time>
      </trkpt>
      <trkpt lat="42.97205" lon="-0.19245">
        <ele>922</ele>
        <time>2023-08-06T09:54:43+02:00</time>
      </trkpt>
      <trkpt lat="42.97227" lon="-0.19259">
        <ele>922</ele>
        <time>2023-08-06T09:54:55+02:00</time>
      </trkpt>
      <trkpt lat="42.97245" lon="-0.19279">
        <ele>925</ele>
        <time>2023-08-06T09:55:11+02:00</time>
      </trkpt>
      <trkpt lat="42.97262" lon="-0.19302">
        <ele>921</ele>
        <time>2023-08-06T09:55:24+02:00</time>
      </trkpt>
      <trkpt lat="42.97282" lon="-0.19318">
        <ele>923</ele>
        <time>2023-08-06T09:55:42+02:00</time>
      </trkpt>
      <trkpt lat="42.97301" lon="-0.19334">
        <ele>924</ele>
        <time>2023-08-06T09:55:56+02:00</time>
      </trkpt>
      <trkpt lat="42.97318" lon="-0.19355">
        <ele>926</ele>
        <time>2023-08-06T09:56:09+02:00</time>
      </trkpt>
      <trkpt lat="42.97338" lon="-0.19372">
        <ele>923</ele>
        <time>2023-08-06T09:56:24+02:00</time>
      </trkpt>
      <trkpt lat="42.97358" lon="-0.19386">
        <ele>921</ele>
        <time>2023-08-06T09:56:40+02:00</time>
      </trkpt>
      <trkpt lat="42.97381" lon="-0.1939">
        <ele>922</ele>
        <time>2023-08-06T09:56:54+02:00</time>
      </trkpt>
      <trkpt lat="42.97403" lon="-0.19397">
        <ele>925</ele>
        <time>2023-08-06T09:57:07+02:00</time>
      </trkpt>
      <trkpt lat="42.97424" lon="-0.19408">
        <ele>924</ele>
        <time>2023-08-06T09:57:21+02:00</time>
      </trkpt>
      <trkpt lat="42.97443" lon="-0.19427">
        <ele>931</ele>
        <time>2023-08-06T09:57:38+02:00</time>
      </trkpt>
      <trkpt lat="42.97463" lon="-0.1941">
        <ele>937</ele>
        <time>2023-08-06T09:57:52+02:00</time>
      </trkpt>
      <trkpt lat="42.97482" lon="-0.19428">
        <ele>940</ele>
        <time>2023-08-06T09:58:05+02:00</time>
      </trkpt>
      <trkpt lat="42.97503" lon="-0.19413">
        <ele>946</ele>
        <time>2023-08-06T09:58:23+02:00</time>
      </trkpt>
      <trkpt lat="42.97504" lon="-0.19445">
        <ele>958</ele>
        <time>2023-08-06T09:58:44+02:00</time>
      </trkpt>
      <trkpt lat="42.97528" lon="-0.19446">
        <ele>976</ele>
        <time>2023-08-06T09:59:22+02:00</time>
      </trkpt>
      <trkpt lat="42.9754" lon="-0.19417">
        <ele>983</ele>
        <time>2023-08-06T09:59:35+02:00</time>
      </trkpt>
      <trkpt lat="42.97555" lon="-0.19394">
        <ele>977</ele>
        <time>2023-08-06T10:00:45+02:00</time>
      </trkpt>
      <trkpt lat="42.97561" lon="-0.19364">
        <ele>981</ele>
        <time>2023-08-06T10:01:41+02:00</time>
      </trkpt>
      <trkpt lat="42.97574" lon="-0.19339">
        <ele>984</ele>
        <time>2023-08-06T10:01:58+02:00</time>
      </trkpt>
      <trkpt lat="42.97573" lon="-0.1937">
        <ele>985</ele>
        <time>2023-08-06T10:02:12+02:00</time>
      </trkpt>
      <trkpt lat="42.97575" lon="-0.19401">
        <ele>988</ele>
        <time>2023-08-06T10:02:26+02:00</time>
      </trkpt>
      <trkpt lat="42.97573" lon="-0.19433">
        <ele>989</ele>
        <time>2023-08-06T10:02:41+02:00</time>
      </trkpt>
      <trkpt lat="42.97573" lon="-0.19465">
        <ele>990</ele>
        <time>2023-08-06T10:02:55+02:00</time>
      </trkpt>
      <trkpt lat="42.97576" lon="-0.19496">
        <ele>990</ele>
        <time>2023-08-06T10:03:10+02:00</time>
      </trkpt>
      <trkpt lat="42.9758" lon="-0.19527">
        <ele>992</ele>
        <time>2023-08-06T10:03:25+02:00</time>
      </trkpt>
      <trkpt lat="42.97592" lon="-0.195">
        <ele>1002</ele>
        <time>2023-08-06T10:03:50+02:00</time>
      </trkpt>
      <trkpt lat="42.97593" lon="-0.19468">
        <ele>1007</ele>
        <time>2023-08-06T10:04:03+02:00</time>
      </trkpt>
      <trkpt lat="42.97603" lon="-0.19439">
        <ele>1009</ele>
        <time>2023-08-06T10:04:17+02:00</time>
      </trkpt>
      <trkpt lat="42.97613" lon="-0.19412">
        <ele>1013</ele>
        <time>2023-08-06T10:04:31+02:00</time>
      </trkpt>
      <trkpt lat="42.97624" lon="-0.19383">
        <ele>1015</ele>
        <time>2023-08-06T10:04:46+02:00</time>
      </trkpt>
      <trkpt lat="42.97633" lon="-0.19354">
        <ele>1018</ele>
        <time>2023-08-06T10:05:01+02:00</time>
      </trkpt>
      <trkpt lat="42.97643" lon="-0.19326">
        <ele>1021</ele>
        <time>2023-08-06T10:05:15+02:00</time>
      </trkpt>
      <trkpt lat="42.97655" lon="-0.193">
        <ele>1024</ele>
        <time>2023-08-06T10:05:28+02:00</time>
      </trkpt>
      <trkpt lat="42.97661" lon="-0.1927">
        <ele>1025</ele>
        <time>2023-08-06T10:05:44+02:00</time>
      </trkpt>
      <trkpt lat="42.97671" lon="-0.19243">
        <ele>1028</ele>
        <time>2023-08-06T10:06:14+02:00</time>
      </trkpt>
      <trkpt lat="42.97671" lon="-0.19275">
        <ele>1032</ele>
        <time>2023-08-06T10:06:28+02:00</time>
      </trkpt>
      <trkpt lat="42.9767" lon="-0.19307">
        <ele>1034</ele>
        <time>2023-08-06T10:06:42+02:00</time>
      </trkpt>
      <trkpt lat="42.97671" lon="-0.19339">
        <ele>1039</ele>
        <time>2023-08-06T10:06:56+02:00</time>
      </trkpt>
      <trkpt lat="42.97672" lon="-0.1937">
        <ele>1042</ele>
        <time>2023-08-06T10:07:09+02:00</time>
      </trkpt>
      <trkpt lat="42.97674" lon="-0.19401">
        <ele>1045</ele>
        <time>2023-08-06T10:07:22+02:00</time>
      </trkpt>
      <trkpt lat="42.97685" lon="-0.19429">
        <ele>1048</ele>
        <time>2023-08-06T10:07:36+02:00</time>
      </trkpt>
      <trkpt lat="42.977" lon="-0.19452">
        <ele>1050</ele>
        <time>2023-08-06T10:07:55+02:00</time>
      </trkpt>
      <trkpt lat="42.97719" lon="-0.19472">
        <ele>1051</ele>
        <time>2023-08-06T10:08:09+02:00</time>
      </trkpt>
      <trkpt lat="42.97734" lon="-0.19496">
        <ele>1055</ele>
        <time>2023-08-06T10:08:23+02:00</time>
      </trkpt>
      <trkpt lat="42.97739" lon="-0.19464">
        <ele>1060</ele>
        <time>2023-08-06T10:08:38+02:00</time>
      </trkpt>
      <trkpt lat="42.97741" lon="-0.19433">
        <ele>1064</ele>
        <time>2023-08-06T10:08:51+02:00</time>
      </trkpt>
      <trkpt lat="42.9774" lon="-0.194">
        <ele>1067</ele>
        <time>2023-08-06T10:09:05+02:00</time>
      </trkpt>
      <trkpt lat="42.97738" lon="-0.19369">
        <ele>1070</ele>
        <time>2023-08-06T10:09:19+02:00</time>
      </trkpt>
      <trkpt lat="42.97761" lon="-0.19374">
        <ele>1075</ele>
        <time>2023-08-06T10:10:01+02:00</time>
      </trkpt>
      <trkpt lat="42.97773" lon="-0.194">
        <ele>1078</ele>
        <time>2023-08-06T10:10:15+02:00</time>
      </trkpt>
      <trkpt lat="42.97784" lon="-0.19428">
        <ele>1079</ele>
        <time>2023-08-06T10:10:31+02:00</time>
      </trkpt>
      <trkpt lat="42.97791" lon="-0.19458">
        <ele>1082</ele>
        <time>2023-08-06T10:10:45+02:00</time>
      </trkpt>
      <trkpt lat="42.97803" lon="-0.19486">
        <ele>1085</ele>
        <time>2023-08-06T10:11:01+02:00</time>
      </trkpt>
      <trkpt lat="42.97824" lon="-0.19502">
        <ele>1088</ele>
        <time>2023-08-06T10:11:16+02:00</time>
      </trkpt>
      <trkpt lat="42.97839" lon="-0.19525">
        <ele>1092</ele>
        <time>2023-08-06T10:11:30+02:00</time>
      </trkpt>
      <trkpt lat="42.97855" lon="-0.19547">
        <ele>1095</ele>
        <time>2023-08-06T10:11:44+02:00</time>
      </trkpt>
      <trkpt lat="42.97872" lon="-0.19567">
        <ele>1095</ele>
        <time>2023-08-06T10:12:06+02:00</time>
      </trkpt>
      <trkpt lat="42.97892" lon="-0.19583">
        <ele>1100</ele>
        <time>2023-08-06T10:15:52+02:00</time>
      </trkpt>
      <trkpt lat="42.97907" lon="-0.19607">
        <ele>1104</ele>
        <time>2023-08-06T10:16:07+02:00</time>
      </trkpt>
      <trkpt lat="42.97924" lon="-0.19628">
        <ele>1103</ele>
        <time>2023-08-06T10:16:21+02:00</time>
      </trkpt>
      <trkpt lat="42.97942" lon="-0.1965">
        <ele>1106</ele>
        <time>2023-08-06T10:16:36+02:00</time>
      </trkpt>
      <trkpt lat="42.97956" lon="-0.19675">
        <ele>1110</ele>
        <time>2023-08-06T10:16:50+02:00</time>
      </trkpt>
      <trkpt lat="42.97971" lon="-0.19701">
        <ele>1114</ele>
        <time>2023-08-06T10:17:05+02:00</time>
      </trkpt>
      <trkpt lat="42.97993" lon="-0.19715">
        <ele>1117</ele>
        <time>2023-08-06T10:17:20+02:00</time>
      </trkpt>
      <trkpt lat="42.98012" lon="-0.19733">
        <ele>1117</ele>
        <time>2023-08-06T10:17:35+02:00</time>
      </trkpt>
      <trkpt lat="42.98025" lon="-0.19758">
        <ele>1119</ele>
        <time>2023-08-06T10:17:50+02:00</time>
      </trkpt>
      <trkpt lat="42.98042" lon="-0.19781">
        <ele>1124</ele>
        <time>2023-08-06T10:18:45+02:00</time>
      </trkpt>
      <trkpt lat="42.98042" lon="-0.19748">
        <ele>1125</ele>
        <time>2023-08-06T10:19:49+02:00</time>
      </trkpt>
      <trkpt lat="42.98061" lon="-0.19768">
        <ele>1130</ele>
        <time>2023-08-06T10:20:09+02:00</time>
      </trkpt>
      <trkpt lat="42.98073" lon="-0.19794">
        <ele>1134</ele>
        <time>2023-08-06T10:20:23+02:00</time>
      </trkpt>
      <trkpt lat="42.98088" lon="-0.19819">
        <ele>1136</ele>
        <time>2023-08-06T10:20:37+02:00</time>
      </trkpt>
      <trkpt lat="42.98099" lon="-0.19845">
        <ele>1141</ele>
        <time>2023-08-06T10:20:52+02:00</time>
      </trkpt>
      <trkpt lat="42.98105" lon="-0.19875">
        <ele>1144</ele>
        <time>2023-08-06T10:21:07+02:00</time>
      </trkpt>
      <trkpt lat="42.98123" lon="-0.19895">
        <ele>1147</ele>
        <time>2023-08-06T10:21:23+02:00</time>
      </trkpt>
      <trkpt lat="42.98132" lon="-0.19923">
        <ele>1150</ele>
        <time>2023-08-06T10:21:38+02:00</time>
      </trkpt>
      <trkpt lat="42.98145" lon="-0.19949">
        <ele>1153</ele>
        <time>2023-08-06T10:21:54+02:00</time>
      </trkpt>
      <trkpt lat="42.98157" lon="-0.19975">
        <ele>1155</ele>
        <time>2023-08-06T10:22:08+02:00</time>
      </trkpt>
      <trkpt lat="42.98168" lon="-0.20002">
        <ele>1156</ele>
        <time>2023-08-06T10:22:26+02:00</time>
      </trkpt>
      <trkpt lat="42.9818" lon="-0.20029">
        <ele>1160</ele>
        <time>2023-08-06T10:22:39+02:00</time>
      </trkpt>
      <trkpt lat="42.98193" lon="-0.20054">
        <ele>1162</ele>
        <time>2023-08-06T10:22:53+02:00</time>
      </trkpt>
      <trkpt lat="42.98208" lon="-0.2008">
        <ele>1169</ele>
        <time>2023-08-06T10:23:09+02:00</time>
      </trkpt>
      <trkpt lat="42.98221" lon="-0.20106">
        <ele>1173</ele>
        <time>2023-08-06T10:23:24+02:00</time>
      </trkpt>
      <trkpt lat="42.98235" lon="-0.2013">
        <ele>1174</ele>
        <time>2023-08-06T10:23:40+02:00</time>
      </trkpt>
      <trkpt lat="42.98253" lon="-0.20149">
        <ele>1183</ele>
        <time>2023-08-06T10:23:57+02:00</time>
      </trkpt>
      <trkpt lat="42.98275" lon="-0.20161">
        <ele>1188</ele>
        <time>2023-08-06T10:24:11+02:00</time>
      </trkpt>
      <trkpt lat="42.98298" lon="-0.20171">
        <ele>1191</ele>
        <time>2023-08-06T10:24:26+02:00</time>
      </trkpt>
      <trkpt lat="42.98288" lon="-0.202">
        <ele>1192</ele>
        <time>2023-08-06T10:24:42+02:00</time>
      </trkpt>
      <trkpt lat="42.98285" lon="-0.2023">
        <ele>1199</ele>
        <time>2023-08-06T10:25:06+02:00</time>
      </trkpt>
      <trkpt lat="42.98306" lon="-0.20242">
        <ele>1212</ele>
        <time>2023-08-06T10:25:20+02:00</time>
      </trkpt>
      <trkpt lat="42.98327" lon="-0.20231">
        <ele>1219</ele>
        <time>2023-08-06T10:26:04+02:00</time>
      </trkpt>
      <trkpt lat="42.98348" lon="-0.20218">
        <ele>1214</ele>
        <time>2023-08-06T10:26:47+02:00</time>
      </trkpt>
      <trkpt lat="42.98384" lon="-0.20251">
        <ele>1234</ele>
        <time>2023-08-06T10:27:57+02:00</time>
      </trkpt>
      <trkpt lat="42.98384" lon="-0.20219">
        <ele>1241</ele>
        <time>2023-08-06T10:28:13+02:00</time>
      </trkpt>
      <trkpt lat="42.98379" lon="-0.20187">
        <ele>1249</ele>
        <time>2023-08-06T10:28:26+02:00</time>
      </trkpt>
      <trkpt lat="42.98376" lon="-0.20156">
        <ele>1253</ele>
        <time>2023-08-06T10:28:40+02:00</time>
      </trkpt>
      <trkpt lat="42.98369" lon="-0.20126">
        <ele>1261</ele>
        <time>2023-08-06T10:28:54+02:00</time>
      </trkpt>
      <trkpt lat="42.98359" lon="-0.20097">
        <ele>1262</ele>
        <time>2023-08-06T10:29:08+02:00</time>
      </trkpt>
      <trkpt lat="42.98346" lon="-0.2007">
        <ele>1262</ele>
        <time>2023-08-06T10:29:22+02:00</time>
      </trkpt>
      <trkpt lat="42.98336" lon="-0.20042">
        <ele>1265</ele>
        <time>2023-08-06T10:29:36+02:00</time>
      </trkpt>
      <trkpt lat="42.98328" lon="-0.20013">
        <ele>1266</ele>
        <time>2023-08-06T10:29:50+02:00</time>
      </trkpt>
      <trkpt lat="42.98318" lon="-0.19983">
        <ele>1266</ele>
        <time>2023-08-06T10:30:06+02:00</time>
      </trkpt>
      <trkpt lat="42.98308" lon="-0.19955">
        <ele>1265</ele>
        <time>2023-08-06T10:30:21+02:00</time>
      </trkpt>
      <trkpt lat="42.98299" lon="-0.19926">
        <ele>1267</ele>
        <time>2023-08-06T10:30:43+02:00</time>
      </trkpt>
      <trkpt lat="42.9829" lon="-0.19895">
        <ele>1272</ele>
        <time>2023-08-06T10:30:57+02:00</time>
      </trkpt>
      <trkpt lat="42.98291" lon="-0.19864">
        <ele>1275</ele>
        <time>2023-08-06T10:31:11+02:00</time>
      </trkpt>
      <trkpt lat="42.98292" lon="-0.19833">
        <ele>1279</ele>
        <time>2023-08-06T10:31:25+02:00</time>
      </trkpt>
      <trkpt lat="42.98293" lon="-0.19801">
        <ele>1283</ele>
        <time>2023-08-06T10:31:41+02:00</time>
      </trkpt>
      <trkpt lat="42.98294" lon="-0.1977">
        <ele>1283</ele>
        <time>2023-08-06T10:31:54+02:00</time>
      </trkpt>
      <trkpt lat="42.98298" lon="-0.19739">
        <ele>1288</ele>
        <time>2023-08-06T10:32:11+02:00</time>
      </trkpt>
      <trkpt lat="42.9831" lon="-0.19765">
        <ele>1290</ele>
        <time>2023-08-06T10:32:29+02:00</time>
      </trkpt>
      <trkpt lat="42.98324" lon="-0.1979">
        <ele>1292</ele>
        <time>2023-08-06T10:32:44+02:00</time>
      </trkpt>
      <trkpt lat="42.98339" lon="-0.19815">
        <ele>1296</ele>
        <time>2023-08-06T10:33:00+02:00</time>
      </trkpt>
      <trkpt lat="42.98362" lon="-0.19818">
        <ele>1299</ele>
        <time>2023-08-06T10:34:35+02:00</time>
      </trkpt>
      <trkpt lat="42.98386" lon="-0.19821">
        <ele>1303</ele>
        <time>2023-08-06T10:34:53+02:00</time>
      </trkpt>
      <trkpt lat="42.98408" lon="-0.19828">
        <ele>1302</ele>
        <time>2023-08-06T10:35:11+02:00</time>
      </trkpt>
      <trkpt lat="42.9843" lon="-0.19838">
        <ele>1301</ele>
        <time>2023-08-06T10:35:30+02:00</time>
      </trkpt>
      <trkpt lat="42.9845" lon="-0.19857">
        <ele>1297</ele>
        <time>2023-08-06T10:35:47+02:00</time>
      </trkpt>
      <trkpt lat="42.98471" lon="-0.19868">
        <ele>1290</ele>
        <time>2023-08-06T10:36:02+02:00</time>
      </trkpt>
      <trkpt lat="42.98486" lon="-0.19891">
        <ele>1292</ele>
        <time>2023-08-06T10:36:17+02:00</time>
      </trkpt>
      <trkpt lat="42.98509" lon="-0.19903">
        <ele>1293</ele>
        <time>2023-08-06T10:36:34+02:00</time>
      </trkpt>
      <trkpt lat="42.98526" lon="-0.19922">
        <ele>1295</ele>
        <time>2023-08-06T10:36:49+02:00</time>
      </trkpt>
      <trkpt lat="42.98545" lon="-0.19941">
        <ele>1297</ele>
        <time>2023-08-06T10:37:04+02:00</time>
      </trkpt>
      <trkpt lat="42.98565" lon="-0.19956">
        <ele>1301</ele>
        <time>2023-08-06T10:37:28+02:00</time>
      </trkpt>
      <trkpt lat="42.98585" lon="-0.19972">
        <ele>1305</ele>
        <time>2023-08-06T10:37:41+02:00</time>
      </trkpt>
      <trkpt lat="42.98603" lon="-0.19991">
        <ele>1308</ele>
        <time>2023-08-06T10:37:56+02:00</time>
      </trkpt>
      <trkpt lat="42.98622" lon="-0.20008">
        <ele>1309</ele>
        <time>2023-08-06T10:38:10+02:00</time>
      </trkpt>
      <trkpt lat="42.98639" lon="-0.20032">
        <ele>1313</ele>
        <time>2023-08-06T10:38:28+02:00</time>
      </trkpt>
      <trkpt lat="42.98658" lon="-0.2005">
        <ele>1316</ele>
        <time>2023-08-06T10:38:44+02:00</time>
      </trkpt>
      <trkpt lat="42.98677" lon="-0.20069">
        <ele>1319</ele>
        <time>2023-08-06T10:39:00+02:00</time>
      </trkpt>
      <trkpt lat="42.98696" lon="-0.20087">
        <ele>1322</ele>
        <time>2023-08-06T10:39:17+02:00</time>
      </trkpt>
      <trkpt lat="42.9871" lon="-0.20112">
        <ele>1324</ele>
        <time>2023-08-06T10:39:33+02:00</time>
      </trkpt>
      <trkpt lat="42.98725" lon="-0.20138">
        <ele>1328</ele>
        <time>2023-08-06T10:39:48+02:00</time>
      </trkpt>
      <trkpt lat="42.98738" lon="-0.20164">
        <ele>1334</ele>
        <time>2023-08-06T10:40:06+02:00</time>
      </trkpt>
      <trkpt lat="42.98752" lon="-0.20189">
        <ele>1339</ele>
        <time>2023-08-06T10:40:21+02:00</time>
      </trkpt>
      <trkpt lat="42.98766" lon="-0.20215">
        <ele>1344</ele>
        <time>2023-08-06T10:40:38+02:00</time>
      </trkpt>
      <trkpt lat="42.98776" lon="-0.20244">
        <ele>1348</ele>
        <time>2023-08-06T10:40:53+02:00</time>
      </trkpt>
      <trkpt lat="42.988" lon="-0.20296">
        <ele>1355</ele>
        <time>2023-08-06T10:41:29+02:00</time>
      </trkpt>
      <trkpt lat="42.98823" lon="-0.20305">
        <ele>1357</ele>
        <time>2023-08-06T10:41:47+02:00</time>
      </trkpt>
      <trkpt lat="42.98846" lon="-0.20312">
        <ele>1363</ele>
        <time>2023-08-06T10:42:04+02:00</time>
      </trkpt>
      <trkpt lat="42.98869" lon="-0.20306">
        <ele>1370</ele>
        <time>2023-08-06T10:42:17+02:00</time>
      </trkpt>
      <trkpt lat="42.98892" lon="-0.2031">
        <ele>1374</ele>
        <time>2023-08-06T10:42:30+02:00</time>
      </trkpt>
      <trkpt lat="42.98915" lon="-0.2031">
        <ele>1379</ele>
        <time>2023-08-06T10:42:46+02:00</time>
      </trkpt>
      <trkpt lat="42.98922" lon="-0.2028">
        <ele>1386</ele>
        <time>2023-08-06T10:43:06+02:00</time>
      </trkpt>
      <trkpt lat="42.98942" lon="-0.20264">
        <ele>1390</ele>
        <time>2023-08-06T10:43:46+02:00</time>
      </trkpt>
      <trkpt lat="42.98955" lon="-0.20289">
        <ele>1389</ele>
        <time>2023-08-06T10:44:05+02:00</time>
      </trkpt>
      <trkpt lat="42.98966" lon="-0.20317">
        <ele>1389</ele>
        <time>2023-08-06T10:44:21+02:00</time>
      </trkpt>
      <trkpt lat="42.98978" lon="-0.20345">
        <ele>1390</ele>
        <time>2023-08-06T10:44:39+02:00</time>
      </trkpt>
      <trkpt lat="42.98991" lon="-0.20319">
        <ele>1396</ele>
        <time>2023-08-06T10:46:27+02:00</time>
      </trkpt>
      <trkpt lat="42.98985" lon="-0.20289">
        <ele>1400</ele>
        <time>2023-08-06T10:46:44+02:00</time>
      </trkpt>
      <trkpt lat="42.98977" lon="-0.2026">
        <ele>1401</ele>
        <time>2023-08-06T10:47:02+02:00</time>
      </trkpt>
      <trkpt lat="42.98971" lon="-0.20199">
        <ele>1405</ele>
        <time>2023-08-06T10:47:35+02:00</time>
      </trkpt>
      <trkpt lat="42.98962" lon="-0.20169">
        <ele>1406</ele>
        <time>2023-08-06T10:47:52+02:00</time>
      </trkpt>
      <trkpt lat="42.98983" lon="-0.20184">
        <ele>1407</ele>
        <time>2023-08-06T10:48:31+02:00</time>
      </trkpt>
      <trkpt lat="42.98994" lon="-0.20211">
        <ele>1408</ele>
        <time>2023-08-06T10:48:47+02:00</time>
      </trkpt>
      <trkpt lat="42.9901" lon="-0.20235">
        <ele>1412</ele>
        <time>2023-08-06T10:49:03+02:00</time>
      </trkpt>
      <trkpt lat="42.99027" lon="-0.20255">
        <ele>1416</ele>
        <time>2023-08-06T10:49:19+02:00</time>
      </trkpt>
      <trkpt lat="42.99049" lon="-0.20267">
        <ele>1417</ele>
        <time>2023-08-06T10:49:35+02:00</time>
      </trkpt>
      <trkpt lat="42.9907" lon="-0.2028">
        <ele>1418</ele>
        <time>2023-08-06T10:49:49+02:00</time>
      </trkpt>
      <trkpt lat="42.99091" lon="-0.20294">
        <ele>1420</ele>
        <time>2023-08-06T10:50:06+02:00</time>
      </trkpt>
      <trkpt lat="42.99113" lon="-0.20303">
        <ele>1417</ele>
        <time>2023-08-06T10:51:52+02:00</time>
      </trkpt>
      <trkpt lat="42.99135" lon="-0.20312">
        <ele>1422</ele>
        <time>2023-08-06T10:52:08+02:00</time>
      </trkpt>
      <trkpt lat="42.99157" lon="-0.20324">
        <ele>1424</ele>
        <time>2023-08-06T10:52:26+02:00</time>
      </trkpt>
      <trkpt lat="42.99177" lon="-0.20338">
        <ele>1426</ele>
        <time>2023-08-06T10:52:41+02:00</time>
      </trkpt>
      <trkpt lat="42.99198" lon="-0.20357">
        <ele>1436</ele>
        <time>2023-08-06T10:53:00+02:00</time>
      </trkpt>
      <trkpt lat="42.99219" lon="-0.20371">
        <ele>1441</ele>
        <time>2023-08-06T10:53:16+02:00</time>
      </trkpt>
      <trkpt lat="42.99241" lon="-0.20383">
        <ele>1431</ele>
        <time>2023-08-06T10:53:31+02:00</time>
      </trkpt>
      <trkpt lat="42.99262" lon="-0.204">
        <ele>1420</ele>
        <time>2023-08-06T10:53:45+02:00</time>
      </trkpt>
      <trkpt lat="42.99279" lon="-0.20419">
        <ele>1418</ele>
        <time>2023-08-06T10:54:00+02:00</time>
      </trkpt>
      <trkpt lat="42.99279" lon="-0.20419">
        <ele>1418</ele>
        <time>2023-08-06T10:54:41+02:00</time>
      </trkpt>
      <trkpt lat="42.99303" lon="-0.20418">
        <ele>1436</ele>
        <time>2023-08-06T10:58:39+02:00</time>
      </trkpt>
      <trkpt lat="42.99325" lon="-0.20412">
        <ele>1436</ele>
        <time>2023-08-06T10:58:51+02:00</time>
      </trkpt>
      <trkpt lat="42.99347" lon="-0.20399">
        <ele>1430</ele>
        <time>2023-08-06T10:59:03+02:00</time>
      </trkpt>
      <trkpt lat="42.99371" lon="-0.20387">
        <ele>1425</ele>
        <time>2023-08-06T10:59:12+02:00</time>
      </trkpt>
      <trkpt lat="42.99391" lon="-0.204">
        <ele>1420</ele>
        <time>2023-08-06T10:59:26+02:00</time>
      </trkpt>
      <trkpt lat="42.99401" lon="-0.20428">
        <ele>1418</ele>
        <time>2023-08-06T10:59:38+02:00</time>
      </trkpt>
      <trkpt lat="42.99414" lon="-0.20454">
        <ele>1412</ele>
        <time>2023-08-06T10:59:51+02:00</time>
      </trkpt>
      <trkpt lat="42.99429" lon="-0.2048">
        <ele>1420</ele>
        <time>2023-08-06T11:00:08+02:00</time>
      </trkpt>
      <trkpt lat="42.99447" lon="-0.205">
        <ele>1418</ele>
        <time>2023-08-06T11:00:23+02:00</time>
      </trkpt>
      <trkpt lat="42.99471" lon="-0.20513">
        <ele>1422</ele>
        <time>2023-08-06T11:00:39+02:00</time>
      </trkpt>
      <trkpt lat="42.99494" lon="-0.20515">
        <ele>1418</ele>
        <time>2023-08-06T11:00:50+02:00</time>
      </trkpt>
      <trkpt lat="42.99508" lon="-0.2049">
        <ele>1417</ele>
        <time>2023-08-06T11:01:04+02:00</time>
      </trkpt>
      <trkpt lat="42.99515" lon="-0.2046">
        <ele>1415</ele>
        <time>2023-08-06T11:01:19+02:00</time>
      </trkpt>
      <trkpt lat="42.99533" lon="-0.20441">
        <ele>1416</ele>
        <time>2023-08-06T11:01:34+02:00</time>
      </trkpt>
      <trkpt lat="42.99554" lon="-0.20427">
        <ele>1416</ele>
        <time>2023-08-06T11:01:52+02:00</time>
      </trkpt>
      <trkpt lat="42.99561" lon="-0.20396">
        <ele>1416</ele>
        <time>2023-08-06T11:02:03+02:00</time>
      </trkpt>
      <trkpt lat="42.9958" lon="-0.20378">
        <ele>1411</ele>
        <time>2023-08-06T11:02:21+02:00</time>
      </trkpt>
      <trkpt lat="42.996" lon="-0.20362">
        <ele>1411</ele>
        <time>2023-08-06T11:02:31+02:00</time>
      </trkpt>
      <trkpt lat="42.99621" lon="-0.20349">
        <ele>1415</ele>
        <time>2023-08-06T11:02:47+02:00</time>
      </trkpt>
      <trkpt lat="42.99644" lon="-0.20346">
        <ele>1415</ele>
        <time>2023-08-06T11:03:03+02:00</time>
      </trkpt>
      <trkpt lat="42.99667" lon="-0.20349">
        <ele>1413</ele>
        <time>2023-08-06T11:03:16+02:00</time>
      </trkpt>
      <trkpt lat="42.99687" lon="-0.20363">
        <ele>1408</ele>
        <time>2023-08-06T11:03:29+02:00</time>
      </trkpt>
      <trkpt lat="42.9971" lon="-0.20369">
        <ele>1414</ele>
        <time>2023-08-06T11:03:43+02:00</time>
      </trkpt>
      <trkpt lat="42.99733" lon="-0.20362">
        <ele>1416</ele>
        <time>2023-08-06T11:03:51+02:00</time>
      </trkpt>
      <trkpt lat="42.99755" lon="-0.20371">
        <ele>1414</ele>
        <time>2023-08-06T11:04:03+02:00</time>
      </trkpt>
      <trkpt lat="42.99776" lon="-0.20388">
        <ele>1411</ele>
        <time>2023-08-06T11:04:14+02:00</time>
      </trkpt>
      <trkpt lat="42.99799" lon="-0.20394">
        <ele>1415</ele>
        <time>2023-08-06T11:04:26+02:00</time>
      </trkpt>
      <trkpt lat="42.99821" lon="-0.20379">
        <ele>1419</ele>
        <time>2023-08-06T11:04:35+02:00</time>
      </trkpt>
      <trkpt lat="42.99842" lon="-0.20366">
        <ele>1418</ele>
        <time>2023-08-06T11:04:50+02:00</time>
      </trkpt>
      <trkpt lat="42.99864" lon="-0.20357">
        <ele>1411</ele>
        <time>2023-08-06T11:05:04+02:00</time>
      </trkpt>
      <trkpt lat="42.99886" lon="-0.20343">
        <ele>1411</ele>
        <time>2023-08-06T11:05:17+02:00</time>
      </trkpt>
      <trkpt lat="42.99904" lon="-0.20322">
        <ele>1405</ele>
        <time>2023-08-06T11:05:32+02:00</time>
      </trkpt>
      <trkpt lat="42.99927" lon="-0.20319">
        <ele>1413</ele>
        <time>2023-08-06T11:05:55+02:00</time>
      </trkpt>
      <trkpt lat="42.9995" lon="-0.20325">
        <ele>1408</ele>
        <time>2023-08-06T11:06:12+02:00</time>
      </trkpt>
      <trkpt lat="42.99974" lon="-0.20329">
        <ele>1400</ele>
        <time>2023-08-06T11:06:28+02:00</time>
      </trkpt>
      <trkpt lat="42.99987" lon="-0.20354">
        <ele>1397</ele>
        <time>2023-08-06T11:06:45+02:00</time>
      </trkpt>
      <trkpt lat="42.99995" lon="-0.20383">
        <ele>1397</ele>
        <time>2023-08-06T11:07:01+02:00</time>
      </trkpt>
      <trkpt lat="43.00007" lon="-0.2041">
        <ele>1395</ele>
        <time>2023-08-06T11:07:15+02:00</time>
      </trkpt>
      <trkpt lat="43.00009" lon="-0.20442">
        <ele>1394</ele>
        <time>2023-08-06T11:07:30+02:00</time>
      </trkpt>
      <trkpt lat="43.00011" lon="-0.20473">
        <ele>1393</ele>
        <time>2023-08-06T11:07:44+02:00</time>
      </trkpt>
      <trkpt lat="43.00014" lon="-0.20506">
        <ele>1395</ele>
        <time>2023-08-06T11:07:57+02:00</time>
      </trkpt>
      <trkpt lat="43.00012" lon="-0.20537">
        <ele>1390</ele>
        <time>2023-08-06T11:08:11+02:00</time>
      </trkpt>
      <trkpt lat="42.99998" lon="-0.2056">
        <ele>1397</ele>
        <time>2023-08-06T11:08:25+02:00</time>
      </trkpt>
      <trkpt lat="42.99999" lon="-0.20529">
        <ele>1394</ele>
        <time>2023-08-06T11:08:44+02:00</time>
      </trkpt>
      <trkpt lat="43.00005" lon="-0.20499">
        <ele>1396</ele>
        <time>2023-08-06T11:08:53+02:00</time>
      </trkpt>
      <trkpt lat="42.99999" lon="-0.20467">
        <ele>1397</ele>
        <time>2023-08-06T11:09:04+02:00</time>
      </trkpt>
      <trkpt lat="42.99988" lon="-0.20439">
        <ele>1397</ele>
        <time>2023-08-06T11:09:13+02:00</time>
      </trkpt>
      <trkpt lat="42.99982" lon="-0.20408">
        <ele>1404</ele>
        <time>2023-08-06T11:09:23+02:00</time>
      </trkpt>
      <trkpt lat="42.99971" lon="-0.20376">
        <ele>1407</ele>
        <time>2023-08-06T11:09:30+02:00</time>
      </trkpt>
      <trkpt lat="42.99957" lon="-0.20349">
        <ele>1409</ele>
        <time>2023-08-06T11:09:36+02:00</time>
      </trkpt>
      <trkpt lat="42.99935" lon="-0.20348">
        <ele>1412</ele>
        <time>2023-08-06T11:09:42+02:00</time>
      </trkpt>
      <trkpt lat="42.99912" lon="-0.20352">
        <ele>1414</ele>
        <time>2023-08-06T11:09:48+02:00</time>
      </trkpt>
      <trkpt lat="42.99893" lon="-0.20374">
        <ele>1420</ele>
        <time>2023-08-06T11:09:55+02:00</time>
      </trkpt>
      <trkpt lat="42.99872" lon="-0.20388">
        <ele>1423</ele>
        <time>2023-08-06T11:09:59+02:00</time>
      </trkpt>
      <trkpt lat="42.99848" lon="-0.20416">
        <ele>1423</ele>
        <time>2023-08-06T11:10:03+02:00</time>
      </trkpt>
      <trkpt lat="42.99828" lon="-0.2043">
        <ele>1425</ele>
        <time>2023-08-06T11:10:06+02:00</time>
      </trkpt>
      <trkpt lat="42.99806" lon="-0.20441">
        <ele>1431</ele>
        <time>2023-08-06T11:10:09+02:00</time>
      </trkpt>
      <trkpt lat="42.99779" lon="-0.20448">
        <ele>1436</ele>
        <time>2023-08-06T11:10:13+02:00</time>
      </trkpt>
      <trkpt lat="42.99756" lon="-0.2045">
        <ele>1438</ele>
        <time>2023-08-06T11:10:16+02:00</time>
      </trkpt>
      <trkpt lat="42.99733" lon="-0.20447">
        <ele>1443</ele>
        <time>2023-08-06T11:10:20+02:00</time>
      </trkpt>
      <trkpt lat="42.99708" lon="-0.2044">
        <ele>1447</ele>
        <time>2023-08-06T11:10:30+02:00</time>
      </trkpt>
      <trkpt lat="42.99685" lon="-0.20436">
        <ele>1449</ele>
        <time>2023-08-06T11:10:43+02:00</time>
      </trkpt>
      <trkpt lat="42.99662" lon="-0.2043">
        <ele>1453</ele>
        <time>2023-08-06T11:10:55+02:00</time>
      </trkpt>
      <trkpt lat="42.99675" lon="-0.20457">
        <ele>1449</ele>
        <time>2023-08-06T11:13:35+02:00</time>
      </trkpt>
      <trkpt lat="42.99695" lon="-0.20473">
        <ele>1448</ele>
        <time>2023-08-06T11:13:50+02:00</time>
      </trkpt>
      <trkpt lat="42.99711" lon="-0.20497">
        <ele>1453</ele>
        <time>2023-08-06T11:14:08+02:00</time>
      </trkpt>
      <trkpt lat="42.99736" lon="-0.20497">
        <ele>1449</ele>
        <time>2023-08-06T11:14:19+02:00</time>
      </trkpt>
      <trkpt lat="42.99759" lon="-0.20495">
        <ele>1452</ele>
        <time>2023-08-06T11:14:31+02:00</time>
      </trkpt>
      <trkpt lat="42.99783" lon="-0.20502">
        <ele>1451</ele>
        <time>2023-08-06T11:14:45+02:00</time>
      </trkpt>
      <trkpt lat="42.99806" lon="-0.20505">
        <ele>1452</ele>
        <time>2023-08-06T11:14:59+02:00</time>
      </trkpt>
      <trkpt lat="42.99828" lon="-0.20516">
        <ele>1452</ele>
        <time>2023-08-06T11:15:13+02:00</time>
      </trkpt>
      <trkpt lat="42.9985" lon="-0.20527">
        <ele>1461</ele>
        <time>2023-08-06T11:15:36+02:00</time>
      </trkpt>
      <trkpt lat="42.99872" lon="-0.20515">
        <ele>1462</ele>
        <time>2023-08-06T11:15:48+02:00</time>
      </trkpt>
      <trkpt lat="42.99894" lon="-0.20507">
        <ele>1458</ele>
        <time>2023-08-06T11:16:03+02:00</time>
      </trkpt>
      <trkpt lat="42.99893" lon="-0.20539">
        <ele>1453</ele>
        <time>2023-08-06T11:16:20+02:00</time>
      </trkpt>
      <trkpt lat="42.99886" lon="-0.20569">
        <ele>1453</ele>
        <time>2023-08-06T11:16:36+02:00</time>
      </trkpt>
      <trkpt lat="42.99883" lon="-0.20602">
        <ele>1457</ele>
        <time>2023-08-06T11:16:52+02:00</time>
      </trkpt>
      <trkpt lat="42.99876" lon="-0.20631">
        <ele>1459</ele>
        <time>2023-08-06T11:17:07+02:00</time>
      </trkpt>
      <trkpt lat="42.99871" lon="-0.20661">
        <ele>1459</ele>
        <time>2023-08-06T11:17:21+02:00</time>
      </trkpt>
      <trkpt lat="42.99862" lon="-0.20692">
        <ele>1448</ele>
        <time>2023-08-06T11:17:34+02:00</time>
      </trkpt>
      <trkpt lat="42.99869" lon="-0.20752">
        <ele>1447</ele>
        <time>2023-08-06T11:18:02+02:00</time>
      </trkpt>
      <trkpt lat="42.99868" lon="-0.20783">
        <ele>1447</ele>
        <time>2023-08-06T11:18:18+02:00</time>
      </trkpt>
      <trkpt lat="42.99873" lon="-0.20815">
        <ele>1448</ele>
        <time>2023-08-06T11:18:33+02:00</time>
      </trkpt>
      <trkpt lat="42.99873" lon="-0.20846">
        <ele>1445</ele>
        <time>2023-08-06T11:18:45+02:00</time>
      </trkpt>
      <trkpt lat="42.99872" lon="-0.20879">
        <ele>1448</ele>
        <time>2023-08-06T11:18:59+02:00</time>
      </trkpt>
      <trkpt lat="42.99878" lon="-0.20908">
        <ele>1452</ele>
        <time>2023-08-06T11:19:13+02:00</time>
      </trkpt>
      <trkpt lat="42.99891" lon="-0.20936">
        <ele>1454</ele>
        <time>2023-08-06T11:19:25+02:00</time>
      </trkpt>
      <trkpt lat="42.99892" lon="-0.20967">
        <ele>1453</ele>
        <time>2023-08-06T11:19:40+02:00</time>
      </trkpt>
      <trkpt lat="42.99876" lon="-0.20988">
        <ele>1454</ele>
        <time>2023-08-06T11:19:55+02:00</time>
      </trkpt>
      <trkpt lat="42.99858" lon="-0.21009">
        <ele>1459</ele>
        <time>2023-08-06T11:20:11+02:00</time>
      </trkpt>
      <trkpt lat="42.99837" lon="-0.21021">
        <ele>1465</ele>
        <time>2023-08-06T11:20:27+02:00</time>
      </trkpt>
      <trkpt lat="42.99816" lon="-0.21033">
        <ele>1466</ele>
        <time>2023-08-06T11:20:42+02:00</time>
      </trkpt>
      <trkpt lat="42.99794" lon="-0.2104">
        <ele>1476</ele>
        <time>2023-08-06T11:20:59+02:00</time>
      </trkpt>
      <trkpt lat="42.99771" lon="-0.21048">
        <ele>1478</ele>
        <time>2023-08-06T11:21:13+02:00</time>
      </trkpt>
      <trkpt lat="42.99749" lon="-0.21057">
        <ele>1470</ele>
        <time>2023-08-06T11:21:26+02:00</time>
      </trkpt>
      <trkpt lat="42.99732" lon="-0.21079">
        <ele>1476</ele>
        <time>2023-08-06T11:21:42+02:00</time>
      </trkpt>
      <trkpt lat="42.99709" lon="-0.21087">
        <ele>1483</ele>
        <time>2023-08-06T11:21:58+02:00</time>
      </trkpt>
      <trkpt lat="42.99692" lon="-0.21109">
        <ele>1485</ele>
        <time>2023-08-06T11:22:13+02:00</time>
      </trkpt>
      <trkpt lat="42.99682" lon="-0.21137">
        <ele>1481</ele>
        <time>2023-08-06T11:22:26+02:00</time>
      </trkpt>
      <trkpt lat="42.99664" lon="-0.21159">
        <ele>1483</ele>
        <time>2023-08-06T11:22:41+02:00</time>
      </trkpt>
      <trkpt lat="42.99641" lon="-0.21161">
        <ele>1487</ele>
        <time>2023-08-06T11:22:57+02:00</time>
      </trkpt>
      <trkpt lat="42.99619" lon="-0.21171">
        <ele>1481</ele>
        <time>2023-08-06T11:23:09+02:00</time>
      </trkpt>
      <trkpt lat="42.99595" lon="-0.2117">
        <ele>1484</ele>
        <time>2023-08-06T11:23:22+02:00</time>
      </trkpt>
      <trkpt lat="42.99572" lon="-0.21166">
        <ele>1476</ele>
        <time>2023-08-06T11:23:37+02:00</time>
      </trkpt>
      <trkpt lat="42.99547" lon="-0.21162">
        <ele>1474</ele>
        <time>2023-08-06T11:23:50+02:00</time>
      </trkpt>
      <trkpt lat="42.99524" lon="-0.21157">
        <ele>1476</ele>
        <time>2023-08-06T11:24:05+02:00</time>
      </trkpt>
      <trkpt lat="42.99503" lon="-0.21145">
        <ele>1476</ele>
        <time>2023-08-06T11:24:19+02:00</time>
      </trkpt>
      <trkpt lat="42.99482" lon="-0.21128">
        <ele>1479</ele>
        <time>2023-08-06T11:24:34+02:00</time>
      </trkpt>
      <trkpt lat="42.99459" lon="-0.2112">
        <ele>1479</ele>
        <time>2023-08-06T11:24:50+02:00</time>
      </trkpt>
      <trkpt lat="42.99435" lon="-0.21124">
        <ele>1483</ele>
        <time>2023-08-06T11:25:02+02:00</time>
      </trkpt>
      <trkpt lat="42.99412" lon="-0.21124">
        <ele>1485</ele>
        <time>2023-08-06T11:25:17+02:00</time>
      </trkpt>
      <trkpt lat="42.99388" lon="-0.21127">
        <ele>1480</ele>
        <time>2023-08-06T11:25:31+02:00</time>
      </trkpt>
      <trkpt lat="42.99365" lon="-0.21126">
        <ele>1478</ele>
        <time>2023-08-06T11:25:44+02:00</time>
      </trkpt>
      <trkpt lat="42.99342" lon="-0.21124">
        <ele>1477</ele>
        <time>2023-08-06T11:25:58+02:00</time>
      </trkpt>
      <trkpt lat="42.99319" lon="-0.2112">
        <ele>1477</ele>
        <time>2023-08-06T11:26:14+02:00</time>
      </trkpt>
      <trkpt lat="42.99296" lon="-0.2112">
        <ele>1478</ele>
        <time>2023-08-06T11:26:27+02:00</time>
      </trkpt>
      <trkpt lat="42.99272" lon="-0.21123">
        <ele>1478</ele>
        <time>2023-08-06T11:26:41+02:00</time>
      </trkpt>
      <trkpt lat="42.99248" lon="-0.21121">
        <ele>1483</ele>
        <time>2023-08-06T11:26:56+02:00</time>
      </trkpt>
      <trkpt lat="42.99228" lon="-0.21138">
        <ele>1486</ele>
        <time>2023-08-06T11:27:10+02:00</time>
      </trkpt>
      <trkpt lat="42.99212" lon="-0.2116">
        <ele>1485</ele>
        <time>2023-08-06T11:27:23+02:00</time>
      </trkpt>
      <trkpt lat="42.99198" lon="-0.21184">
        <ele>1487</ele>
        <time>2023-08-06T11:27:39+02:00</time>
      </trkpt>
      <trkpt lat="42.99178" lon="-0.21204">
        <ele>1494</ele>
        <time>2023-08-06T11:27:57+02:00</time>
      </trkpt>
      <trkpt lat="42.9916" lon="-0.21225">
        <ele>1499</ele>
        <time>2023-08-06T11:28:13+02:00</time>
      </trkpt>
      <trkpt lat="42.99149" lon="-0.21253">
        <ele>1498</ele>
        <time>2023-08-06T11:28:25+02:00</time>
      </trkpt>
      <trkpt lat="42.99137" lon="-0.21279">
        <ele>1501</ele>
        <time>2023-08-06T11:28:42+02:00</time>
      </trkpt>
      <trkpt lat="42.9913" lon="-0.21309">
        <ele>1498</ele>
        <time>2023-08-06T11:28:56+02:00</time>
      </trkpt>
      <trkpt lat="42.99122" lon="-0.21339">
        <ele>1497</ele>
        <time>2023-08-06T11:29:11+02:00</time>
      </trkpt>
      <trkpt lat="42.99117" lon="-0.2137">
        <ele>1500</ele>
        <time>2023-08-06T11:29:26+02:00</time>
      </trkpt>
      <trkpt lat="42.99111" lon="-0.214">
        <ele>1499</ele>
        <time>2023-08-06T11:29:43+02:00</time>
      </trkpt>
      <trkpt lat="42.99105" lon="-0.21431">
        <ele>1498</ele>
        <time>2023-08-06T11:29:58+02:00</time>
      </trkpt>
      <trkpt lat="42.99096" lon="-0.21462">
        <ele>1491</ele>
        <time>2023-08-06T11:30:11+02:00</time>
      </trkpt>
      <trkpt lat="42.99091" lon="-0.21493">
        <ele>1487</ele>
        <time>2023-08-06T11:30:24+02:00</time>
      </trkpt>
      <trkpt lat="42.9909" lon="-0.21524">
        <ele>1489</ele>
        <time>2023-08-06T11:30:40+02:00</time>
      </trkpt>
      <trkpt lat="42.99085" lon="-0.21586">
        <ele>1474</ele>
        <time>2023-08-06T11:31:04+02:00</time>
      </trkpt>
      <trkpt lat="42.99085" lon="-0.21619">
        <ele>1468</ele>
        <time>2023-08-06T11:31:18+02:00</time>
      </trkpt>
      <trkpt lat="42.99083" lon="-0.21652">
        <ele>1468</ele>
        <time>2023-08-06T11:31:33+02:00</time>
      </trkpt>
      <trkpt lat="42.99086" lon="-0.21682">
        <ele>1470</ele>
        <time>2023-08-06T11:31:49+02:00</time>
      </trkpt>
      <trkpt lat="42.99094" lon="-0.21651">
        <ele>1451</ele>
        <time>2023-08-06T11:32:12+02:00</time>
      </trkpt>
      <trkpt lat="42.99094" lon="-0.2162">
        <ele>1449</ele>
        <time>2023-08-06T11:32:25+02:00</time>
      </trkpt>
      <trkpt lat="42.9911" lon="-0.21643">
        <ele>1451</ele>
        <time>2023-08-06T11:33:02+02:00</time>
      </trkpt>
      <trkpt lat="42.99109" lon="-0.21675">
        <ele>1449</ele>
        <time>2023-08-06T11:33:16+02:00</time>
      </trkpt>
      <trkpt lat="42.99108" lon="-0.21706">
        <ele>1448</ele>
        <time>2023-08-06T11:33:31+02:00</time>
      </trkpt>
      <trkpt lat="42.99104" lon="-0.21737">
        <ele>1446</ele>
        <time>2023-08-06T11:33:47+02:00</time>
      </trkpt>
      <trkpt lat="42.99114" lon="-0.21765">
        <ele>1460</ele>
        <time>2023-08-06T11:34:07+02:00</time>
      </trkpt>
      <trkpt lat="42.99135" lon="-0.21752">
        <ele>1469</ele>
        <time>2023-08-06T11:34:20+02:00</time>
      </trkpt>
      <trkpt lat="42.99157" lon="-0.21748">
        <ele>1465</ele>
        <time>2023-08-06T11:34:34+02:00</time>
      </trkpt>
      <trkpt lat="42.9918" lon="-0.21751">
        <ele>1471</ele>
        <time>2023-08-06T11:34:47+02:00</time>
      </trkpt>
      <trkpt lat="42.99203" lon="-0.21757">
        <ele>1466</ele>
        <time>2023-08-06T11:34:58+02:00</time>
      </trkpt>
      <trkpt lat="42.99226" lon="-0.21763">
        <ele>1463</ele>
        <time>2023-08-06T11:35:17+02:00</time>
      </trkpt>
      <trkpt lat="42.99247" lon="-0.21777">
        <ele>1463</ele>
        <time>2023-08-06T11:35:35+02:00</time>
      </trkpt>
      <trkpt lat="42.99271" lon="-0.21776">
        <ele>1469</ele>
        <time>2023-08-06T11:35:50+02:00</time>
      </trkpt>
      <trkpt lat="42.99293" lon="-0.21785">
        <ele>1471</ele>
        <time>2023-08-06T11:36:05+02:00</time>
      </trkpt>
      <trkpt lat="42.99315" lon="-0.21792">
        <ele>1470</ele>
        <time>2023-08-06T11:36:20+02:00</time>
      </trkpt>
      <trkpt lat="42.99335" lon="-0.21809">
        <ele>1470</ele>
        <time>2023-08-06T11:36:35+02:00</time>
      </trkpt>
      <trkpt lat="42.99346" lon="-0.21837">
        <ele>1468</ele>
        <time>2023-08-06T11:36:55+02:00</time>
      </trkpt>
      <trkpt lat="42.99338" lon="-0.21867">
        <ele>1472</ele>
        <time>2023-08-06T11:37:15+02:00</time>
      </trkpt>
      <trkpt lat="42.99329" lon="-0.21896">
        <ele>1471</ele>
        <time>2023-08-06T11:37:29+02:00</time>
      </trkpt>
      <trkpt lat="42.99324" lon="-0.21927">
        <ele>1478</ele>
        <time>2023-08-06T11:37:47+02:00</time>
      </trkpt>
      <trkpt lat="42.99319" lon="-0.21958">
        <ele>1488</ele>
        <time>2023-08-06T11:38:05+02:00</time>
      </trkpt>
      <trkpt lat="42.99308" lon="-0.21985">
        <ele>1485</ele>
        <time>2023-08-06T11:38:20+02:00</time>
      </trkpt>
      <trkpt lat="42.99296" lon="-0.22013">
        <ele>1487</ele>
        <time>2023-08-06T11:38:34+02:00</time>
      </trkpt>
      <trkpt lat="42.99285" lon="-0.21985">
        <ele>1482</ele>
        <time>2023-08-06T11:39:04+02:00</time>
      </trkpt>
      <trkpt lat="42.99281" lon="-0.21955">
        <ele>1479</ele>
        <time>2023-08-06T11:39:19+02:00</time>
      </trkpt>
      <trkpt lat="42.9928" lon="-0.21922">
        <ele>1481</ele>
        <time>2023-08-06T11:39:31+02:00</time>
      </trkpt>
      <trkpt lat="42.99262" lon="-0.21941">
        <ele>1490</ele>
        <time>2023-08-06T11:40:02+02:00</time>
      </trkpt>
      <trkpt lat="42.99252" lon="-0.21971">
        <ele>1493</ele>
        <time>2023-08-06T11:40:18+02:00</time>
      </trkpt>
      <trkpt lat="42.99238" lon="-0.21997">
        <ele>1501</ele>
        <time>2023-08-06T11:40:33+02:00</time>
      </trkpt>
      <trkpt lat="42.99223" lon="-0.22021">
        <ele>1498</ele>
        <time>2023-08-06T11:40:47+02:00</time>
      </trkpt>
      <trkpt lat="42.9921" lon="-0.22049">
        <ele>1499</ele>
        <time>2023-08-06T11:41:01+02:00</time>
      </trkpt>
      <trkpt lat="42.9921" lon="-0.2208">
        <ele>1501</ele>
        <time>2023-08-06T11:41:11+02:00</time>
      </trkpt>
      <trkpt lat="42.99216" lon="-0.22112">
        <ele>1496</ele>
        <time>2023-08-06T11:41:20+02:00</time>
      </trkpt>
      <trkpt lat="42.99223" lon="-0.22143">
        <ele>1500</ele>
        <time>2023-08-06T11:41:29+02:00</time>
      </trkpt>
      <trkpt lat="42.992" lon="-0.22132">
        <ele>1503</ele>
        <time>2023-08-06T11:41:43+02:00</time>
      </trkpt>
      <trkpt lat="42.99187" lon="-0.22105">
        <ele>1505</ele>
        <time>2023-08-06T11:41:52+02:00</time>
      </trkpt>
      <trkpt lat="42.99169" lon="-0.22086">
        <ele>1504</ele>
        <time>2023-08-06T11:42:02+02:00</time>
      </trkpt>
      <trkpt lat="42.99154" lon="-0.22062">
        <ele>1503</ele>
        <time>2023-08-06T11:42:16+02:00</time>
      </trkpt>
      <trkpt lat="42.99133" lon="-0.22047">
        <ele>1507</ele>
        <time>2023-08-06T11:42:32+02:00</time>
      </trkpt>
      <trkpt lat="42.99112" lon="-0.22033">
        <ele>1510</ele>
        <time>2023-08-06T11:42:49+02:00</time>
      </trkpt>
      <trkpt lat="42.99112" lon="-0.22033">
        <ele>1510</ele>
        <time>2023-08-06T11:44:41+02:00</time>
      </trkpt>
      <trkpt lat="42.99122" lon="-0.22061">
        <ele>1506</ele>
        <time>2023-08-06T13:02:01+02:00</time>
      </trkpt>
      <trkpt lat="42.99118" lon="-0.22093">
        <ele>1514</ele>
        <time>2023-08-06T13:02:20+02:00</time>
      </trkpt>
      <trkpt lat="42.9912" lon="-0.22143">
        <ele>1514</ele>
        <time>2023-08-06T13:02:48+02:00</time>
      </trkpt>
      <trkpt lat="42.99134" lon="-0.22168">
        <ele>1518</ele>
        <time>2023-08-06T13:03:04+02:00</time>
      </trkpt>
      <trkpt lat="42.99152" lon="-0.2219">
        <ele>1519</ele>
        <time>2023-08-06T13:03:22+02:00</time>
      </trkpt>
      <trkpt lat="42.99154" lon="-0.22223">
        <ele>1523</ele>
        <time>2023-08-06T13:03:36+02:00</time>
      </trkpt>
      <trkpt lat="42.99149" lon="-0.22255">
        <ele>1528</ele>
        <time>2023-08-06T13:03:49+02:00</time>
      </trkpt>
      <trkpt lat="42.99153" lon="-0.22285">
        <ele>1530</ele>
        <time>2023-08-06T13:04:02+02:00</time>
      </trkpt>
      <trkpt lat="42.99152" lon="-0.22317">
        <ele>1531</ele>
        <time>2023-08-06T13:04:17+02:00</time>
      </trkpt>
      <trkpt lat="42.99151" lon="-0.22349">
        <ele>1537</ele>
        <time>2023-08-06T13:04:39+02:00</time>
      </trkpt>
      <trkpt lat="42.99159" lon="-0.22379">
        <ele>1538</ele>
        <time>2023-08-06T13:04:55+02:00</time>
      </trkpt>
      <trkpt lat="42.99167" lon="-0.22408">
        <ele>1536</ele>
        <time>2023-08-06T13:05:15+02:00</time>
      </trkpt>
      <trkpt lat="42.99187" lon="-0.22462">
        <ele>1546</ele>
        <time>2023-08-06T13:05:53+02:00</time>
      </trkpt>
      <trkpt lat="42.99209" lon="-0.22457">
        <ele>1535</ele>
        <time>2023-08-06T13:06:35+02:00</time>
      </trkpt>
      <trkpt lat="42.99208" lon="-0.22489">
        <ele>1539</ele>
        <time>2023-08-06T13:07:40+02:00</time>
      </trkpt>
      <trkpt lat="42.99217" lon="-0.22519">
        <ele>1549</ele>
        <time>2023-08-06T13:08:40+02:00</time>
      </trkpt>
      <trkpt lat="42.99228" lon="-0.22548">
        <ele>1554</ele>
        <time>2023-08-06T13:08:53+02:00</time>
      </trkpt>
      <trkpt lat="42.99234" lon="-0.2258">
        <ele>1555</ele>
        <time>2023-08-06T13:09:07+02:00</time>
      </trkpt>
      <trkpt lat="42.99226" lon="-0.22609">
        <ele>1559</ele>
        <time>2023-08-06T13:09:25+02:00</time>
      </trkpt>
      <trkpt lat="42.99207" lon="-0.22625">
        <ele>1563</ele>
        <time>2023-08-06T13:09:35+02:00</time>
      </trkpt>
      <trkpt lat="42.99186" lon="-0.22639">
        <ele>1566</ele>
        <time>2023-08-06T13:09:45+02:00</time>
      </trkpt>
      <trkpt lat="42.99164" lon="-0.22647">
        <ele>1570</ele>
        <time>2023-08-06T13:09:54+02:00</time>
      </trkpt>
      <trkpt lat="42.9914" lon="-0.22652">
        <ele>1573</ele>
        <time>2023-08-06T13:10:07+02:00</time>
      </trkpt>
      <trkpt lat="42.99117" lon="-0.2266">
        <ele>1578</ele>
        <time>2023-08-06T13:10:26+02:00</time>
      </trkpt>
      <trkpt lat="42.99099" lon="-0.22678">
        <ele>1577</ele>
        <time>2023-08-06T13:10:41+02:00</time>
      </trkpt>
      <trkpt lat="42.9908" lon="-0.22694">
        <ele>1576</ele>
        <time>2023-08-06T13:10:57+02:00</time>
      </trkpt>
      <trkpt lat="42.9906" lon="-0.22713">
        <ele>1577</ele>
        <time>2023-08-06T13:11:12+02:00</time>
      </trkpt>
      <trkpt lat="42.99037" lon="-0.22715">
        <ele>1579</ele>
        <time>2023-08-06T13:11:28+02:00</time>
      </trkpt>
      <trkpt lat="42.99014" lon="-0.22706">
        <ele>1579</ele>
        <time>2023-08-06T13:11:40+02:00</time>
      </trkpt>
      <trkpt lat="42.98992" lon="-0.22691">
        <ele>1577</ele>
        <time>2023-08-06T13:11:50+02:00</time>
      </trkpt>
      <trkpt lat="42.9897" lon="-0.22678">
        <ele>1577</ele>
        <time>2023-08-06T13:11:59+02:00</time>
      </trkpt>
      <trkpt lat="42.98947" lon="-0.2267">
        <ele>1579</ele>
        <time>2023-08-06T13:12:09+02:00</time>
      </trkpt>
      <trkpt lat="42.98924" lon="-0.22675">
        <ele>1580</ele>
        <time>2023-08-06T13:12:18+02:00</time>
      </trkpt>
      <trkpt lat="42.98902" lon="-0.22689">
        <ele>1581</ele>
        <time>2023-08-06T13:12:27+02:00</time>
      </trkpt>
      <trkpt lat="42.98878" lon="-0.22697">
        <ele>1580</ele>
        <time>2023-08-06T13:12:37+02:00</time>
      </trkpt>
      <trkpt lat="42.98856" lon="-0.22704">
        <ele>1583</ele>
        <time>2023-08-06T13:12:48+02:00</time>
      </trkpt>
      <trkpt lat="42.98834" lon="-0.22712">
        <ele>1583</ele>
        <time>2023-08-06T13:12:58+02:00</time>
      </trkpt>
      <trkpt lat="42.98812" lon="-0.22725">
        <ele>1583</ele>
        <time>2023-08-06T13:13:09+02:00</time>
      </trkpt>
      <trkpt lat="42.9879" lon="-0.22736">
        <ele>1588</ele>
        <time>2023-08-06T13:13:23+02:00</time>
      </trkpt>
      <trkpt lat="42.9877" lon="-0.22751">
        <ele>1588</ele>
        <time>2023-08-06T13:13:38+02:00</time>
      </trkpt>
      <trkpt lat="42.98746" lon="-0.22755">
        <ele>1585</ele>
        <time>2023-08-06T13:13:51+02:00</time>
      </trkpt>
      <trkpt lat="42.98724" lon="-0.22762">
        <ele>1584</ele>
        <time>2023-08-06T13:14:03+02:00</time>
      </trkpt>
      <trkpt lat="42.98704" lon="-0.2278">
        <ele>1587</ele>
        <time>2023-08-06T13:14:14+02:00</time>
      </trkpt>
      <trkpt lat="42.98693" lon="-0.22808">
        <ele>1586</ele>
        <time>2023-08-06T13:14:26+02:00</time>
      </trkpt>
      <trkpt lat="42.98672" lon="-0.22823">
        <ele>1587</ele>
        <time>2023-08-06T13:14:40+02:00</time>
      </trkpt>
      <trkpt lat="42.98649" lon="-0.22824">
        <ele>1585</ele>
        <time>2023-08-06T13:14:57+02:00</time>
      </trkpt>
      <trkpt lat="42.98625" lon="-0.22825">
        <ele>1583</ele>
        <time>2023-08-06T13:15:12+02:00</time>
      </trkpt>
      <trkpt lat="42.98603" lon="-0.22831">
        <ele>1583</ele>
        <time>2023-08-06T13:15:28+02:00</time>
      </trkpt>
      <trkpt lat="42.98581" lon="-0.2284">
        <ele>1585</ele>
        <time>2023-08-06T13:15:46+02:00</time>
      </trkpt>
      <trkpt lat="42.9856" lon="-0.22852">
        <ele>1584</ele>
        <time>2023-08-06T13:16:00+02:00</time>
      </trkpt>
      <trkpt lat="42.98539" lon="-0.22868">
        <ele>1585</ele>
        <time>2023-08-06T13:16:16+02:00</time>
      </trkpt>
      <trkpt lat="42.98523" lon="-0.2289">
        <ele>1585</ele>
        <time>2023-08-06T13:16:30+02:00</time>
      </trkpt>
      <trkpt lat="42.98518" lon="-0.22921">
        <ele>1581</ele>
        <time>2023-08-06T13:16:47+02:00</time>
      </trkpt>
      <trkpt lat="42.98523" lon="-0.22951">
        <ele>1578</ele>
        <time>2023-08-06T13:17:02+02:00</time>
      </trkpt>
      <trkpt lat="42.98528" lon="-0.22981">
        <ele>1575</ele>
        <time>2023-08-06T13:17:19+02:00</time>
      </trkpt>
      <trkpt lat="42.98543" lon="-0.23007">
        <ele>1573</ele>
        <time>2023-08-06T13:17:35+02:00</time>
      </trkpt>
      <trkpt lat="42.98559" lon="-0.23029">
        <ele>1573</ele>
        <time>2023-08-06T13:17:50+02:00</time>
      </trkpt>
      <trkpt lat="42.98569" lon="-0.23058">
        <ele>1571</ele>
        <time>2023-08-06T13:18:06+02:00</time>
      </trkpt>
      <trkpt lat="42.98576" lon="-0.23089">
        <ele>1571</ele>
        <time>2023-08-06T13:18:21+02:00</time>
      </trkpt>
      <trkpt lat="42.98579" lon="-0.23121">
        <ele>1567</ele>
        <time>2023-08-06T13:18:37+02:00</time>
      </trkpt>
      <trkpt lat="42.9858" lon="-0.23153">
        <ele>1564</ele>
        <time>2023-08-06T13:18:54+02:00</time>
      </trkpt>
      <trkpt lat="42.98579" lon="-0.23184">
        <ele>1562</ele>
        <time>2023-08-06T13:19:10+02:00</time>
      </trkpt>
      <trkpt lat="42.98578" lon="-0.23215">
        <ele>1560</ele>
        <time>2023-08-06T13:19:24+02:00</time>
      </trkpt>
      <trkpt lat="42.98573" lon="-0.23247">
        <ele>1561</ele>
        <time>2023-08-06T13:19:40+02:00</time>
      </trkpt>
      <trkpt lat="42.98568" lon="-0.23279">
        <ele>1560</ele>
        <time>2023-08-06T13:19:55+02:00</time>
      </trkpt>
      <trkpt lat="42.98566" lon="-0.23311">
        <ele>1561</ele>
        <time>2023-08-06T13:20:14+02:00</time>
      </trkpt>
      <trkpt lat="42.98581" lon="-0.23334">
        <ele>1561</ele>
        <time>2023-08-06T13:20:27+02:00</time>
      </trkpt>
      <trkpt lat="42.98586" lon="-0.23365">
        <ele>1561</ele>
        <time>2023-08-06T13:20:44+02:00</time>
      </trkpt>
      <trkpt lat="42.98582" lon="-0.23396">
        <ele>1561</ele>
        <time>2023-08-06T13:21:01+02:00</time>
      </trkpt>
      <trkpt lat="42.98577" lon="-0.23457">
        <ele>1557</ele>
        <time>2023-08-06T13:21:31+02:00</time>
      </trkpt>
      <trkpt lat="42.98569" lon="-0.23487">
        <ele>1556</ele>
        <time>2023-08-06T13:21:47+02:00</time>
      </trkpt>
      <trkpt lat="42.98556" lon="-0.23512">
        <ele>1555</ele>
        <time>2023-08-06T13:22:02+02:00</time>
      </trkpt>
      <trkpt lat="42.98549" lon="-0.23542">
        <ele>1548</ele>
        <time>2023-08-06T13:22:17+02:00</time>
      </trkpt>
      <trkpt lat="42.9855" lon="-0.23574">
        <ele>1548</ele>
        <time>2023-08-06T13:22:31+02:00</time>
      </trkpt>
      <trkpt lat="42.9855" lon="-0.23606">
        <ele>1550</ele>
        <time>2023-08-06T13:22:47+02:00</time>
      </trkpt>
      <trkpt lat="42.98554" lon="-0.23636">
        <ele>1553</ele>
        <time>2023-08-06T13:23:03+02:00</time>
      </trkpt>
      <trkpt lat="42.98563" lon="-0.23665">
        <ele>1557</ele>
        <time>2023-08-06T13:23:24+02:00</time>
      </trkpt>
      <trkpt lat="42.98572" lon="-0.23694">
        <ele>1556</ele>
        <time>2023-08-06T13:23:39+02:00</time>
      </trkpt>
      <trkpt lat="42.98571" lon="-0.23725">
        <ele>1554</ele>
        <time>2023-08-06T13:23:56+02:00</time>
      </trkpt>
      <trkpt lat="42.98577" lon="-0.23755">
        <ele>1554</ele>
        <time>2023-08-06T13:24:11+02:00</time>
      </trkpt>
      <trkpt lat="42.98575" lon="-0.23786">
        <ele>1548</ele>
        <time>2023-08-06T13:24:28+02:00</time>
      </trkpt>
      <trkpt lat="42.9859" lon="-0.23812">
        <ele>1547</ele>
        <time>2023-08-06T13:24:42+02:00</time>
      </trkpt>
      <trkpt lat="42.986" lon="-0.23839">
        <ele>1547</ele>
        <time>2023-08-06T13:24:59+02:00</time>
      </trkpt>
      <trkpt lat="42.98616" lon="-0.23861">
        <ele>1541</ele>
        <time>2023-08-06T13:25:16+02:00</time>
      </trkpt>
      <trkpt lat="42.98633" lon="-0.23882">
        <ele>1536</ele>
        <time>2023-08-06T13:25:31+02:00</time>
      </trkpt>
      <trkpt lat="42.98653" lon="-0.239">
        <ele>1529</ele>
        <time>2023-08-06T13:25:45+02:00</time>
      </trkpt>
      <trkpt lat="42.98663" lon="-0.2393">
        <ele>1523</ele>
        <time>2023-08-06T13:26:01+02:00</time>
      </trkpt>
      <trkpt lat="42.98666" lon="-0.23962">
        <ele>1525</ele>
        <time>2023-08-06T13:26:15+02:00</time>
      </trkpt>
      <trkpt lat="42.98659" lon="-0.23991">
        <ele>1526</ele>
        <time>2023-08-06T13:26:31+02:00</time>
      </trkpt>
      <trkpt lat="42.98654" lon="-0.24022">
        <ele>1527</ele>
        <time>2023-08-06T13:26:46+02:00</time>
      </trkpt>
      <trkpt lat="42.98648" lon="-0.24054">
        <ele>1525</ele>
        <time>2023-08-06T13:27:03+02:00</time>
      </trkpt>
      <trkpt lat="42.98637" lon="-0.24113">
        <ele>1525</ele>
        <time>2023-08-06T13:27:33+02:00</time>
      </trkpt>
      <trkpt lat="42.98636" lon="-0.24145">
        <ele>1519</ele>
        <time>2023-08-06T13:27:50+02:00</time>
      </trkpt>
      <trkpt lat="42.98628" lon="-0.24176">
        <ele>1518</ele>
        <time>2023-08-06T13:28:06+02:00</time>
      </trkpt>
      <trkpt lat="42.98611" lon="-0.24198">
        <ele>1518</ele>
        <time>2023-08-06T13:28:15+02:00</time>
      </trkpt>
      <trkpt lat="42.98631" lon="-0.24216">
        <ele>1517</ele>
        <time>2023-08-06T13:28:30+02:00</time>
      </trkpt>
      <trkpt lat="42.9863" lon="-0.24247">
        <ele>1522</ele>
        <time>2023-08-06T13:28:47+02:00</time>
      </trkpt>
      <trkpt lat="42.98627" lon="-0.24278">
        <ele>1526</ele>
        <time>2023-08-06T13:29:04+02:00</time>
      </trkpt>
      <trkpt lat="42.98627" lon="-0.2431">
        <ele>1525</ele>
        <time>2023-08-06T13:29:20+02:00</time>
      </trkpt>
      <trkpt lat="42.98629" lon="-0.24341">
        <ele>1528</ele>
        <time>2023-08-06T13:29:38+02:00</time>
      </trkpt>
      <trkpt lat="42.98627" lon="-0.24373">
        <ele>1527</ele>
        <time>2023-08-06T13:29:56+02:00</time>
      </trkpt>
      <trkpt lat="42.98637" lon="-0.24402">
        <ele>1529</ele>
        <time>2023-08-06T13:30:11+02:00</time>
      </trkpt>
      <trkpt lat="42.98634" lon="-0.24433">
        <ele>1519</ele>
        <time>2023-08-06T13:30:23+02:00</time>
      </trkpt>
      <trkpt lat="42.98628" lon="-0.24463">
        <ele>1509</ele>
        <time>2023-08-06T13:30:35+02:00</time>
      </trkpt>
      <trkpt lat="42.98627" lon="-0.24495">
        <ele>1509</ele>
        <time>2023-08-06T13:30:51+02:00</time>
      </trkpt>
      <trkpt lat="42.9863" lon="-0.24526">
        <ele>1508</ele>
        <time>2023-08-06T13:31:06+02:00</time>
      </trkpt>
      <trkpt lat="42.98631" lon="-0.24558">
        <ele>1512</ele>
        <time>2023-08-06T13:31:22+02:00</time>
      </trkpt>
      <trkpt lat="42.98622" lon="-0.24588">
        <ele>1511</ele>
        <time>2023-08-06T13:31:37+02:00</time>
      </trkpt>
      <trkpt lat="42.98601" lon="-0.24597">
        <ele>1514</ele>
        <time>2023-08-06T13:31:52+02:00</time>
      </trkpt>
      <trkpt lat="42.98578" lon="-0.24604">
        <ele>1516</ele>
        <time>2023-08-06T13:32:08+02:00</time>
      </trkpt>
      <trkpt lat="42.98556" lon="-0.24603">
        <ele>1517</ele>
        <time>2023-08-06T13:32:20+02:00</time>
      </trkpt>
      <trkpt lat="42.98534" lon="-0.24597">
        <ele>1518</ele>
        <time>2023-08-06T13:32:30+02:00</time>
      </trkpt>
      <trkpt lat="42.98514" lon="-0.24576">
        <ele>1520</ele>
        <time>2023-08-06T13:32:40+02:00</time>
      </trkpt>
      <trkpt lat="42.98497" lon="-0.24553">
        <ele>1525</ele>
        <time>2023-08-06T13:32:48+02:00</time>
      </trkpt>
      <trkpt lat="42.98486" lon="-0.24523">
        <ele>1529</ele>
        <time>2023-08-06T13:32:57+02:00</time>
      </trkpt>
      <trkpt lat="42.98463" lon="-0.24507">
        <ele>1529</ele>
        <time>2023-08-06T13:33:05+02:00</time>
      </trkpt>
      <trkpt lat="42.98443" lon="-0.24487">
        <ele>1529</ele>
        <time>2023-08-06T13:33:14+02:00</time>
      </trkpt>
      <trkpt lat="42.98422" lon="-0.24469">
        <ele>1530</ele>
        <time>2023-08-06T13:33:23+02:00</time>
      </trkpt>
      <trkpt lat="42.98399" lon="-0.24462">
        <ele>1531</ele>
        <time>2023-08-06T13:33:32+02:00</time>
      </trkpt>
      <trkpt lat="42.98376" lon="-0.24451">
        <ele>1531</ele>
        <time>2023-08-06T13:33:42+02:00</time>
      </trkpt>
      <trkpt lat="42.98352" lon="-0.24446">
        <ele>1532</ele>
        <time>2023-08-06T13:33:52+02:00</time>
      </trkpt>
      <trkpt lat="42.98329" lon="-0.24454">
        <ele>1529</ele>
        <time>2023-08-06T13:34:04+02:00</time>
      </trkpt>
      <trkpt lat="42.98307" lon="-0.24446">
        <ele>1531</ele>
        <time>2023-08-06T13:34:20+02:00</time>
      </trkpt>
      <trkpt lat="42.98291" lon="-0.24422">
        <ele>1533</ele>
        <time>2023-08-06T13:34:33+02:00</time>
      </trkpt>
      <trkpt lat="42.9827" lon="-0.24437">
        <ele>1535</ele>
        <time>2023-08-06T13:34:47+02:00</time>
      </trkpt>
      <trkpt lat="42.98253" lon="-0.24461">
        <ele>1533</ele>
        <time>2023-08-06T13:34:53+02:00</time>
      </trkpt>
      <trkpt lat="42.98231" lon="-0.24473">
        <ele>1533</ele>
        <time>2023-08-06T13:34:58+02:00</time>
      </trkpt>
      <trkpt lat="42.98208" lon="-0.24475">
        <ele>1535</ele>
        <time>2023-08-06T13:35:03+02:00</time>
      </trkpt>
      <trkpt lat="42.98183" lon="-0.24489">
        <ele>1538</ele>
        <time>2023-08-06T13:35:09+02:00</time>
      </trkpt>
      <trkpt lat="42.9816" lon="-0.24503">
        <ele>1535</ele>
        <time>2023-08-06T13:35:14+02:00</time>
      </trkpt>
      <trkpt lat="42.98139" lon="-0.24517">
        <ele>1534</ele>
        <time>2023-08-06T13:35:19+02:00</time>
      </trkpt>
      <trkpt lat="42.98122" lon="-0.24541">
        <ele>1536</ele>
        <time>2023-08-06T13:35:24+02:00</time>
      </trkpt>
      <trkpt lat="42.98106" lon="-0.24563">
        <ele>1543</ele>
        <time>2023-08-06T13:35:29+02:00</time>
      </trkpt>
      <trkpt lat="42.98088" lon="-0.24589">
        <ele>1547</ele>
        <time>2023-08-06T13:35:34+02:00</time>
      </trkpt>
      <trkpt lat="42.98072" lon="-0.24618">
        <ele>1549</ele>
        <time>2023-08-06T13:35:39+02:00</time>
      </trkpt>
      <trkpt lat="42.98066" lon="-0.24649">
        <ele>1550</ele>
        <time>2023-08-06T13:35:45+02:00</time>
      </trkpt>
      <trkpt lat="42.98064" lon="-0.24681">
        <ele>1550</ele>
        <time>2023-08-06T13:35:59+02:00</time>
      </trkpt>
      <trkpt lat="42.98051" lon="-0.24655">
        <ele>1560</ele>
        <time>2023-08-06T13:36:30+02:00</time>
      </trkpt>
      <trkpt lat="42.98049" lon="-0.24624">
        <ele>1564</ele>
        <time>2023-08-06T13:36:45+02:00</time>
      </trkpt>
      <trkpt lat="42.98048" lon="-0.24593">
        <ele>1564</ele>
        <time>2023-08-06T13:37:01+02:00</time>
      </trkpt>
      <trkpt lat="42.98058" lon="-0.24563">
        <ele>1565</ele>
        <time>2023-08-06T13:37:16+02:00</time>
      </trkpt>
      <trkpt lat="42.98069" lon="-0.24535">
        <ele>1565</ele>
        <time>2023-08-06T13:37:31+02:00</time>
      </trkpt>
      <trkpt lat="42.9806" lon="-0.24506">
        <ele>1566</ele>
        <time>2023-08-06T13:37:44+02:00</time>
      </trkpt>
      <trkpt lat="42.9806" lon="-0.24475">
        <ele>1568</ele>
        <time>2023-08-06T13:37:59+02:00</time>
      </trkpt>
      <trkpt lat="42.98079" lon="-0.24456">
        <ele>1569</ele>
        <time>2023-08-06T13:38:13+02:00</time>
      </trkpt>
      <trkpt lat="42.98101" lon="-0.24445">
        <ele>1571</ele>
        <time>2023-08-06T13:38:26+02:00</time>
      </trkpt>
      <trkpt lat="42.98122" lon="-0.24435">
        <ele>1574</ele>
        <time>2023-08-06T13:38:39+02:00</time>
      </trkpt>
      <trkpt lat="42.98142" lon="-0.24419">
        <ele>1578</ele>
        <time>2023-08-06T13:38:55+02:00</time>
      </trkpt>
      <trkpt lat="42.98145" lon="-0.24388">
        <ele>1580</ele>
        <time>2023-08-06T13:39:08+02:00</time>
      </trkpt>
      <trkpt lat="42.98154" lon="-0.2436">
        <ele>1581</ele>
        <time>2023-08-06T13:39:23+02:00</time>
      </trkpt>
      <trkpt lat="42.98169" lon="-0.24336">
        <ele>1581</ele>
        <time>2023-08-06T13:39:37+02:00</time>
      </trkpt>
      <trkpt lat="42.9819" lon="-0.24323">
        <ele>1583</ele>
        <time>2023-08-06T13:39:52+02:00</time>
      </trkpt>
      <trkpt lat="42.98209" lon="-0.24303">
        <ele>1585</ele>
        <time>2023-08-06T13:40:06+02:00</time>
      </trkpt>
      <trkpt lat="42.98225" lon="-0.2428">
        <ele>1587</ele>
        <time>2023-08-06T13:40:19+02:00</time>
      </trkpt>
      <trkpt lat="42.98232" lon="-0.2425">
        <ele>1587</ele>
        <time>2023-08-06T13:40:33+02:00</time>
      </trkpt>
      <trkpt lat="42.9825" lon="-0.24193">
        <ele>1595</ele>
        <time>2023-08-06T13:41:05+02:00</time>
      </trkpt>
      <trkpt lat="42.98263" lon="-0.24166">
        <ele>1598</ele>
        <time>2023-08-06T13:41:20+02:00</time>
      </trkpt>
      <trkpt lat="42.98273" lon="-0.24137">
        <ele>1596</ele>
        <time>2023-08-06T13:41:35+02:00</time>
      </trkpt>
      <trkpt lat="42.98253" lon="-0.24154">
        <ele>1596</ele>
        <time>2023-08-06T13:42:03+02:00</time>
      </trkpt>
      <trkpt lat="42.98241" lon="-0.24181">
        <ele>1596</ele>
        <time>2023-08-06T13:42:17+02:00</time>
      </trkpt>
      <trkpt lat="42.98229" lon="-0.24208">
        <ele>1593</ele>
        <time>2023-08-06T13:42:33+02:00</time>
      </trkpt>
      <trkpt lat="42.98221" lon="-0.24239">
        <ele>1593</ele>
        <time>2023-08-06T13:42:49+02:00</time>
      </trkpt>
      <trkpt lat="42.98211" lon="-0.24267">
        <ele>1591</ele>
        <time>2023-08-06T13:43:05+02:00</time>
      </trkpt>
      <trkpt lat="42.98193" lon="-0.24288">
        <ele>1591</ele>
        <time>2023-08-06T13:43:22+02:00</time>
      </trkpt>
      <trkpt lat="42.98176" lon="-0.24309">
        <ele>1591</ele>
        <time>2023-08-06T13:43:37+02:00</time>
      </trkpt>
      <trkpt lat="42.98155" lon="-0.24324">
        <ele>1591</ele>
        <time>2023-08-06T13:43:53+02:00</time>
      </trkpt>
      <trkpt lat="42.9814" lon="-0.24347">
        <ele>1592</ele>
        <time>2023-08-06T13:44:09+02:00</time>
      </trkpt>
      <trkpt lat="42.98122" lon="-0.24368">
        <ele>1590</ele>
        <time>2023-08-06T13:44:25+02:00</time>
      </trkpt>
      <trkpt lat="42.98105" lon="-0.2439">
        <ele>1588</ele>
        <time>2023-08-06T13:44:40+02:00</time>
      </trkpt>
      <trkpt lat="42.98085" lon="-0.24406">
        <ele>1588</ele>
        <time>2023-08-06T13:44:57+02:00</time>
      </trkpt>
      <trkpt lat="42.98064" lon="-0.24419">
        <ele>1587</ele>
        <time>2023-08-06T13:45:12+02:00</time>
      </trkpt>
      <trkpt lat="42.98047" lon="-0.24439">
        <ele>1587</ele>
        <time>2023-08-06T13:45:28+02:00</time>
      </trkpt>
      <trkpt lat="42.9803" lon="-0.24461">
        <ele>1586</ele>
        <time>2023-08-06T13:45:44+02:00</time>
      </trkpt>
      <trkpt lat="42.98022" lon="-0.24491">
        <ele>1583</ele>
        <time>2023-08-06T13:45:59+02:00</time>
      </trkpt>
      <trkpt lat="42.98023" lon="-0.24522">
        <ele>1583</ele>
        <time>2023-08-06T13:46:14+02:00</time>
      </trkpt>
      <trkpt lat="42.98022" lon="-0.24554">
        <ele>1580</ele>
        <time>2023-08-06T13:46:29+02:00</time>
      </trkpt>
      <trkpt lat="42.98021" lon="-0.24586">
        <ele>1581</ele>
        <time>2023-08-06T13:46:45+02:00</time>
      </trkpt>
      <trkpt lat="42.98018" lon="-0.24618">
        <ele>1580</ele>
        <time>2023-08-06T13:46:59+02:00</time>
      </trkpt>
      <trkpt lat="42.98012" lon="-0.2465">
        <ele>1577</ele>
        <time>2023-08-06T13:47:13+02:00</time>
      </trkpt>
      <trkpt lat="42.97994" lon="-0.24671">
        <ele>1582</ele>
        <time>2023-08-06T13:47:30+02:00</time>
      </trkpt>
      <trkpt lat="42.97975" lon="-0.24689">
        <ele>1583</ele>
        <time>2023-08-06T13:47:44+02:00</time>
      </trkpt>
      <trkpt lat="42.97953" lon="-0.24701">
        <ele>1580</ele>
        <time>2023-08-06T13:47:59+02:00</time>
      </trkpt>
      <trkpt lat="42.9793" lon="-0.24705">
        <ele>1578</ele>
        <time>2023-08-06T13:48:13+02:00</time>
      </trkpt>
      <trkpt lat="42.97907" lon="-0.24715">
        <ele>1582</ele>
        <time>2023-08-06T13:48:27+02:00</time>
      </trkpt>
      <trkpt lat="42.97889" lon="-0.24733">
        <ele>1583</ele>
        <time>2023-08-06T13:48:41+02:00</time>
      </trkpt>
      <trkpt lat="42.97869" lon="-0.24748">
        <ele>1581</ele>
        <time>2023-08-06T13:48:55+02:00</time>
      </trkpt>
      <trkpt lat="42.97849" lon="-0.24764">
        <ele>1580</ele>
        <time>2023-08-06T13:49:10+02:00</time>
      </trkpt>
      <trkpt lat="42.97827" lon="-0.24776">
        <ele>1579</ele>
        <time>2023-08-06T13:49:22+02:00</time>
      </trkpt>
      <trkpt lat="42.97804" lon="-0.24773">
        <ele>1581</ele>
        <time>2023-08-06T13:49:37+02:00</time>
      </trkpt>
      <trkpt lat="42.97781" lon="-0.24762">
        <ele>1579</ele>
        <time>2023-08-06T13:49:51+02:00</time>
      </trkpt>
      <trkpt lat="42.97759" lon="-0.24749">
        <ele>1579</ele>
        <time>2023-08-06T13:50:06+02:00</time>
      </trkpt>
      <trkpt lat="42.97747" lon="-0.24724">
        <ele>1575</ele>
        <time>2023-08-06T13:50:20+02:00</time>
      </trkpt>
      <trkpt lat="42.9773" lon="-0.24704">
        <ele>1576</ele>
        <time>2023-08-06T13:50:34+02:00</time>
      </trkpt>
      <trkpt lat="42.97708" lon="-0.24697">
        <ele>1576</ele>
        <time>2023-08-06T13:50:49+02:00</time>
      </trkpt>
      <trkpt lat="42.97685" lon="-0.24688">
        <ele>1572</ele>
        <time>2023-08-06T13:51:03+02:00</time>
      </trkpt>
      <trkpt lat="42.97662" lon="-0.24689">
        <ele>1572</ele>
        <time>2023-08-06T13:51:16+02:00</time>
      </trkpt>
      <trkpt lat="42.97638" lon="-0.24691">
        <ele>1569</ele>
        <time>2023-08-06T13:51:31+02:00</time>
      </trkpt>
      <trkpt lat="42.97618" lon="-0.24707">
        <ele>1571</ele>
        <time>2023-08-06T13:51:44+02:00</time>
      </trkpt>
      <trkpt lat="42.97602" lon="-0.2473">
        <ele>1572</ele>
        <time>2023-08-06T13:51:56+02:00</time>
      </trkpt>
      <trkpt lat="42.9758" lon="-0.24742">
        <ele>1573</ele>
        <time>2023-08-06T13:52:10+02:00</time>
      </trkpt>
      <trkpt lat="42.97559" lon="-0.24756">
        <ele>1575</ele>
        <time>2023-08-06T13:52:25+02:00</time>
      </trkpt>
      <trkpt lat="42.97536" lon="-0.24757">
        <ele>1575</ele>
        <time>2023-08-06T13:52:40+02:00</time>
      </trkpt>
      <trkpt lat="42.97521" lon="-0.24733">
        <ele>1574</ele>
        <time>2023-08-06T13:52:54+02:00</time>
      </trkpt>
      <trkpt lat="42.97499" lon="-0.24728">
        <ele>1576</ele>
        <time>2023-08-06T13:53:11+02:00</time>
      </trkpt>
      <trkpt lat="42.97475" lon="-0.24732">
        <ele>1575</ele>
        <time>2023-08-06T13:53:26+02:00</time>
      </trkpt>
      <trkpt lat="42.97451" lon="-0.24735">
        <ele>1574</ele>
        <time>2023-08-06T13:53:42+02:00</time>
      </trkpt>
      <trkpt lat="42.97428" lon="-0.24742">
        <ele>1578</ele>
        <time>2023-08-06T13:53:58+02:00</time>
      </trkpt>
      <trkpt lat="42.97408" lon="-0.2476">
        <ele>1581</ele>
        <time>2023-08-06T13:54:14+02:00</time>
      </trkpt>
      <trkpt lat="42.97385" lon="-0.24761">
        <ele>1584</ele>
        <time>2023-08-06T13:54:27+02:00</time>
      </trkpt>
      <trkpt lat="42.97362" lon="-0.24756">
        <ele>1588</ele>
        <time>2023-08-06T13:54:44+02:00</time>
      </trkpt>
      <trkpt lat="42.97339" lon="-0.24759">
        <ele>1590</ele>
        <time>2023-08-06T13:55:00+02:00</time>
      </trkpt>
      <trkpt lat="42.97316" lon="-0.24765">
        <ele>1591</ele>
        <time>2023-08-06T13:55:15+02:00</time>
      </trkpt>
      <trkpt lat="42.97295" lon="-0.24779">
        <ele>1594</ele>
        <time>2023-08-06T13:55:31+02:00</time>
      </trkpt>
      <trkpt lat="42.97279" lon="-0.24804">
        <ele>1594</ele>
        <time>2023-08-06T13:55:42+02:00</time>
      </trkpt>
      <trkpt lat="42.97253" lon="-0.24854">
        <ele>1594</ele>
        <time>2023-08-06T13:56:08+02:00</time>
      </trkpt>
      <trkpt lat="42.97236" lon="-0.24875">
        <ele>1597</ele>
        <time>2023-08-06T13:56:21+02:00</time>
      </trkpt>
      <trkpt lat="42.97219" lon="-0.24896">
        <ele>1595</ele>
        <time>2023-08-06T13:56:33+02:00</time>
      </trkpt>
      <trkpt lat="42.97204" lon="-0.2492">
        <ele>1595</ele>
        <time>2023-08-06T13:56:48+02:00</time>
      </trkpt>
      <trkpt lat="42.97199" lon="-0.24951">
        <ele>1596</ele>
        <time>2023-08-06T13:57:04+02:00</time>
      </trkpt>
      <trkpt lat="42.97191" lon="-0.2498">
        <ele>1596</ele>
        <time>2023-08-06T13:57:19+02:00</time>
      </trkpt>
      <trkpt lat="42.97186" lon="-0.25012">
        <ele>1595</ele>
        <time>2023-08-06T13:57:34+02:00</time>
      </trkpt>
      <trkpt lat="42.97184" lon="-0.25043">
        <ele>1595</ele>
        <time>2023-08-06T13:57:48+02:00</time>
      </trkpt>
      <trkpt lat="42.9718" lon="-0.25075">
        <ele>1595</ele>
        <time>2023-08-06T13:58:02+02:00</time>
      </trkpt>
      <trkpt lat="42.97174" lon="-0.25106">
        <ele>1596</ele>
        <time>2023-08-06T13:58:16+02:00</time>
      </trkpt>
      <trkpt lat="42.97169" lon="-0.25137">
        <ele>1595</ele>
        <time>2023-08-06T13:58:25+02:00</time>
      </trkpt>
      <trkpt lat="42.97177" lon="-0.25167">
        <ele>1596</ele>
        <time>2023-08-06T13:58:35+02:00</time>
      </trkpt>
      <trkpt lat="42.97185" lon="-0.25197">
        <ele>1593</ele>
        <time>2023-08-06T13:58:49+02:00</time>
      </trkpt>
      <trkpt lat="42.97193" lon="-0.25226">
        <ele>1589</ele>
        <time>2023-08-06T13:59:02+02:00</time>
      </trkpt>
      <trkpt lat="42.97203" lon="-0.25255">
        <ele>1583</ele>
        <time>2023-08-06T13:59:15+02:00</time>
      </trkpt>
      <trkpt lat="42.97207" lon="-0.25286">
        <ele>1586</ele>
        <time>2023-08-06T13:59:30+02:00</time>
      </trkpt>
      <trkpt lat="42.97206" lon="-0.25318">
        <ele>1586</ele>
        <time>2023-08-06T13:59:44+02:00</time>
      </trkpt>
      <trkpt lat="42.97205" lon="-0.2535">
        <ele>1588</ele>
        <time>2023-08-06T14:00:00+02:00</time>
      </trkpt>
      <trkpt lat="42.97194" lon="-0.25412">
        <ele>1586</ele>
        <time>2023-08-06T14:00:29+02:00</time>
      </trkpt>
      <trkpt lat="42.97186" lon="-0.25442">
        <ele>1582</ele>
        <time>2023-08-06T14:00:43+02:00</time>
      </trkpt>
      <trkpt lat="42.97173" lon="-0.2547">
        <ele>1581</ele>
        <time>2023-08-06T14:00:58+02:00</time>
      </trkpt>
      <trkpt lat="42.97165" lon="-0.255">
        <ele>1581</ele>
        <time>2023-08-06T14:01:12+02:00</time>
      </trkpt>
      <trkpt lat="42.97156" lon="-0.25528">
        <ele>1580</ele>
        <time>2023-08-06T14:01:26+02:00</time>
      </trkpt>
      <trkpt lat="42.97144" lon="-0.25554">
        <ele>1581</ele>
        <time>2023-08-06T14:01:40+02:00</time>
      </trkpt>
      <trkpt lat="42.97129" lon="-0.2558">
        <ele>1580</ele>
        <time>2023-08-06T14:01:55+02:00</time>
      </trkpt>
      <trkpt lat="42.97129" lon="-0.25611">
        <ele>1583</ele>
        <time>2023-08-06T14:02:43+02:00</time>
      </trkpt>
      <trkpt lat="42.97137" lon="-0.25641">
        <ele>1582</ele>
        <time>2023-08-06T14:02:57+02:00</time>
      </trkpt>
      <trkpt lat="42.97136" lon="-0.25678">
        <ele>1583</ele>
        <time>2023-08-06T14:03:07+02:00</time>
      </trkpt>
      <trkpt lat="42.97128" lon="-0.25712">
        <ele>1585</ele>
        <time>2023-08-06T14:03:12+02:00</time>
      </trkpt>
      <trkpt lat="42.97119" lon="-0.25743">
        <ele>1588</ele>
        <time>2023-08-06T14:03:17+02:00</time>
      </trkpt>
      <trkpt lat="42.97111" lon="-0.25777">
        <ele>1590</ele>
        <time>2023-08-06T14:03:22+02:00</time>
      </trkpt>
      <trkpt lat="42.97109" lon="-0.25809">
        <ele>1590</ele>
        <time>2023-08-06T14:03:27+02:00</time>
      </trkpt>
      <trkpt lat="42.97114" lon="-0.2584">
        <ele>1587</ele>
        <time>2023-08-06T14:03:32+02:00</time>
      </trkpt>
      <trkpt lat="42.97133" lon="-0.25866">
        <ele>1589</ele>
        <time>2023-08-06T14:03:38+02:00</time>
      </trkpt>
      <trkpt lat="42.97141" lon="-0.259">
        <ele>1591</ele>
        <time>2023-08-06T14:03:43+02:00</time>
      </trkpt>
      <trkpt lat="42.97157" lon="-0.25923">
        <ele>1594</ele>
        <time>2023-08-06T14:03:49+02:00</time>
      </trkpt>
      <trkpt lat="42.97165" lon="-0.25956">
        <ele>1593</ele>
        <time>2023-08-06T14:03:55+02:00</time>
      </trkpt>
      <trkpt lat="42.97172" lon="-0.25988">
        <ele>1591</ele>
        <time>2023-08-06T14:04:07+02:00</time>
      </trkpt>
      <trkpt lat="42.97178" lon="-0.26018">
        <ele>1593</ele>
        <time>2023-08-06T14:04:18+02:00</time>
      </trkpt>
      <trkpt lat="42.97184" lon="-0.26048">
        <ele>1593</ele>
        <time>2023-08-06T14:04:31+02:00</time>
      </trkpt>
      <trkpt lat="42.97183" lon="-0.26079">
        <ele>1589</ele>
        <time>2023-08-06T14:04:45+02:00</time>
      </trkpt>
      <trkpt lat="42.97182" lon="-0.26112">
        <ele>1589</ele>
        <time>2023-08-06T14:04:58+02:00</time>
      </trkpt>
      <trkpt lat="42.97178" lon="-0.26143">
        <ele>1590</ele>
        <time>2023-08-06T14:05:13+02:00</time>
      </trkpt>
      <trkpt lat="42.97168" lon="-0.26172">
        <ele>1593</ele>
        <time>2023-08-06T14:05:27+02:00</time>
      </trkpt>
      <trkpt lat="42.97154" lon="-0.26197">
        <ele>1594</ele>
        <time>2023-08-06T14:05:40+02:00</time>
      </trkpt>
      <trkpt lat="42.97135" lon="-0.26217">
        <ele>1598</ele>
        <time>2023-08-06T14:05:54+02:00</time>
      </trkpt>
      <trkpt lat="42.97117" lon="-0.26236">
        <ele>1598</ele>
        <time>2023-08-06T14:06:07+02:00</time>
      </trkpt>
      <trkpt lat="42.97096" lon="-0.26248">
        <ele>1602</ele>
        <time>2023-08-06T14:06:21+02:00</time>
      </trkpt>
      <trkpt lat="42.97074" lon="-0.26238">
        <ele>1605</ele>
        <time>2023-08-06T14:06:50+02:00</time>
      </trkpt>
      <trkpt lat="42.9705" lon="-0.26225">
        <ele>1608</ele>
        <time>2023-08-06T14:07:05+02:00</time>
      </trkpt>
      <trkpt lat="42.97028" lon="-0.26211">
        <ele>1612</ele>
        <time>2023-08-06T14:07:10+02:00</time>
      </trkpt>
      <trkpt lat="42.97006" lon="-0.26202">
        <ele>1611</ele>
        <time>2023-08-06T14:07:14+02:00</time>
      </trkpt>
      <trkpt lat="42.96983" lon="-0.26223">
        <ele>1611</ele>
        <time>2023-08-06T14:07:18+02:00</time>
      </trkpt>
      <trkpt lat="42.9696" lon="-0.26221">
        <ele>1614</ele>
        <time>2023-08-06T14:07:23+02:00</time>
      </trkpt>
      <trkpt lat="42.96941" lon="-0.26198">
        <ele>1615</ele>
        <time>2023-08-06T14:07:28+02:00</time>
      </trkpt>
      <trkpt lat="42.96921" lon="-0.2617">
        <ele>1614</ele>
        <time>2023-08-06T14:07:33+02:00</time>
      </trkpt>
      <trkpt lat="42.969" lon="-0.26156">
        <ele>1613</ele>
        <time>2023-08-06T14:07:37+02:00</time>
      </trkpt>
      <trkpt lat="42.96875" lon="-0.26138">
        <ele>1616</ele>
        <time>2023-08-06T14:07:42+02:00</time>
      </trkpt>
      <trkpt lat="42.96851" lon="-0.26127">
        <ele>1619</ele>
        <time>2023-08-06T14:07:48+02:00</time>
      </trkpt>
      <trkpt lat="42.9683" lon="-0.26116">
        <ele>1624</ele>
        <time>2023-08-06T14:07:58+02:00</time>
      </trkpt>
      <trkpt lat="42.96809" lon="-0.26101">
        <ele>1627</ele>
        <time>2023-08-06T14:08:11+02:00</time>
      </trkpt>
      <trkpt lat="42.96786" lon="-0.26088">
        <ele>1629</ele>
        <time>2023-08-06T14:08:25+02:00</time>
      </trkpt>
      <trkpt lat="42.96769" lon="-0.26067">
        <ele>1631</ele>
        <time>2023-08-06T14:08:38+02:00</time>
      </trkpt>
      <trkpt lat="42.96758" lon="-0.26039">
        <ele>1633</ele>
        <time>2023-08-06T14:08:51+02:00</time>
      </trkpt>
      <trkpt lat="42.96743" lon="-0.26016">
        <ele>1632</ele>
        <time>2023-08-06T14:09:06+02:00</time>
      </trkpt>
      <trkpt lat="42.96724" lon="-0.25999">
        <ele>1634</ele>
        <time>2023-08-06T14:09:18+02:00</time>
      </trkpt>
      <trkpt lat="42.96705" lon="-0.2598">
        <ele>1632</ele>
        <time>2023-08-06T14:09:32+02:00</time>
      </trkpt>
      <trkpt lat="42.96685" lon="-0.25964">
        <ele>1630</ele>
        <time>2023-08-06T14:09:45+02:00</time>
      </trkpt>
      <trkpt lat="42.96667" lon="-0.25944">
        <ele>1630</ele>
        <time>2023-08-06T14:10:01+02:00</time>
      </trkpt>
      <trkpt lat="42.96645" lon="-0.25931">
        <ele>1631</ele>
        <time>2023-08-06T14:10:16+02:00</time>
      </trkpt>
      <trkpt lat="42.96625" lon="-0.25918">
        <ele>1626</ele>
        <time>2023-08-06T14:10:29+02:00</time>
      </trkpt>
      <trkpt lat="42.96601" lon="-0.25919">
        <ele>1624</ele>
        <time>2023-08-06T14:10:44+02:00</time>
      </trkpt>
      <trkpt lat="42.96577" lon="-0.25922">
        <ele>1622</ele>
        <time>2023-08-06T14:11:00+02:00</time>
      </trkpt>
      <trkpt lat="42.96554" lon="-0.25923">
        <ele>1619</ele>
        <time>2023-08-06T14:11:15+02:00</time>
      </trkpt>
      <trkpt lat="42.96531" lon="-0.25922">
        <ele>1617</ele>
        <time>2023-08-06T14:11:30+02:00</time>
      </trkpt>
      <trkpt lat="42.96508" lon="-0.25928">
        <ele>1612</ele>
        <time>2023-08-06T14:11:45+02:00</time>
      </trkpt>
      <trkpt lat="42.96484" lon="-0.25929">
        <ele>1611</ele>
        <time>2023-08-06T14:11:58+02:00</time>
      </trkpt>
      <trkpt lat="42.96461" lon="-0.25933">
        <ele>1603</ele>
        <time>2023-08-06T14:12:13+02:00</time>
      </trkpt>
      <trkpt lat="42.96438" lon="-0.2594">
        <ele>1592</ele>
        <time>2023-08-06T14:12:28+02:00</time>
      </trkpt>
      <trkpt lat="42.96414" lon="-0.25945">
        <ele>1596</ele>
        <time>2023-08-06T14:12:42+02:00</time>
      </trkpt>
      <trkpt lat="42.96391" lon="-0.25937">
        <ele>1593</ele>
        <time>2023-08-06T14:12:58+02:00</time>
      </trkpt>
      <trkpt lat="42.96369" lon="-0.25927">
        <ele>1590</ele>
        <time>2023-08-06T14:13:12+02:00</time>
      </trkpt>
      <trkpt lat="42.96346" lon="-0.25923">
        <ele>1581</ele>
        <time>2023-08-06T14:13:30+02:00</time>
      </trkpt>
      <trkpt lat="42.96322" lon="-0.25924">
        <ele>1575</ele>
        <time>2023-08-06T14:13:46+02:00</time>
      </trkpt>
      <trkpt lat="42.963" lon="-0.25928">
        <ele>1569</ele>
        <time>2023-08-06T14:14:00+02:00</time>
      </trkpt>
      <trkpt lat="42.96277" lon="-0.25931">
        <ele>1565</ele>
        <time>2023-08-06T14:14:17+02:00</time>
      </trkpt>
      <trkpt lat="42.96255" lon="-0.25941">
        <ele>1560</ele>
        <time>2023-08-06T14:14:33+02:00</time>
      </trkpt>
      <trkpt lat="42.96238" lon="-0.25965">
        <ele>1555</ele>
        <time>2023-08-06T14:14:47+02:00</time>
      </trkpt>
      <trkpt lat="42.96217" lon="-0.25979">
        <ele>1551</ele>
        <time>2023-08-06T14:15:02+02:00</time>
      </trkpt>
      <trkpt lat="42.96194" lon="-0.25987">
        <ele>1545</ele>
        <time>2023-08-06T14:15:17+02:00</time>
      </trkpt>
      <trkpt lat="42.96174" lon="-0.26005">
        <ele>1546</ele>
        <time>2023-08-06T14:15:35+02:00</time>
      </trkpt>
      <trkpt lat="42.96157" lon="-0.26026">
        <ele>1540</ele>
        <time>2023-08-06T14:15:53+02:00</time>
      </trkpt>
      <trkpt lat="42.96138" lon="-0.26044">
        <ele>1537</ele>
        <time>2023-08-06T14:16:09+02:00</time>
      </trkpt>
      <trkpt lat="42.96128" lon="-0.26015">
        <ele>1528</ele>
        <time>2023-08-06T14:16:37+02:00</time>
      </trkpt>
      <trkpt lat="42.96135" lon="-0.25984">
        <ele>1526</ele>
        <time>2023-08-06T14:16:51+02:00</time>
      </trkpt>
      <trkpt lat="42.96144" lon="-0.25954">
        <ele>1524</ele>
        <time>2023-08-06T14:17:07+02:00</time>
      </trkpt>
      <trkpt lat="42.96162" lon="-0.25933">
        <ele>1522</ele>
        <time>2023-08-06T14:17:23+02:00</time>
      </trkpt>
      <trkpt lat="42.96176" lon="-0.25907">
        <ele>1518</ele>
        <time>2023-08-06T14:17:38+02:00</time>
      </trkpt>
      <trkpt lat="42.96179" lon="-0.25875">
        <ele>1516</ele>
        <time>2023-08-06T14:17:53+02:00</time>
      </trkpt>
      <trkpt lat="42.96181" lon="-0.25844">
        <ele>1516</ele>
        <time>2023-08-06T14:18:06+02:00</time>
      </trkpt>
      <trkpt lat="42.96174" lon="-0.25814">
        <ele>1516</ele>
        <time>2023-08-06T14:18:18+02:00</time>
      </trkpt>
      <trkpt lat="42.96163" lon="-0.25786">
        <ele>1511</ele>
        <time>2023-08-06T14:18:32+02:00</time>
      </trkpt>
      <trkpt lat="42.96156" lon="-0.25757">
        <ele>1511</ele>
        <time>2023-08-06T14:18:46+02:00</time>
      </trkpt>
      <trkpt lat="42.96155" lon="-0.25724">
        <ele>1509</ele>
        <time>2023-08-06T14:19:01+02:00</time>
      </trkpt>
      <trkpt lat="42.96156" lon="-0.25692">
        <ele>1508</ele>
        <time>2023-08-06T14:19:16+02:00</time>
      </trkpt>
      <trkpt lat="42.96162" lon="-0.25661">
        <ele>1507</ele>
        <time>2023-08-06T14:19:28+02:00</time>
      </trkpt>
      <trkpt lat="42.96184" lon="-0.25653">
        <ele>1505</ele>
        <time>2023-08-06T14:19:42+02:00</time>
      </trkpt>
      <trkpt lat="42.96206" lon="-0.2564">
        <ele>1508</ele>
        <time>2023-08-06T14:19:55+02:00</time>
      </trkpt>
      <trkpt lat="42.96222" lon="-0.25618">
        <ele>1512</ele>
        <time>2023-08-06T14:20:10+02:00</time>
      </trkpt>
      <trkpt lat="42.96233" lon="-0.2559">
        <ele>1514</ele>
        <time>2023-08-06T14:20:22+02:00</time>
      </trkpt>
      <trkpt lat="42.96242" lon="-0.25562">
        <ele>1515</ele>
        <time>2023-08-06T14:20:36+02:00</time>
      </trkpt>
      <trkpt lat="42.96255" lon="-0.25536">
        <ele>1514</ele>
        <time>2023-08-06T14:20:51+02:00</time>
      </trkpt>
      <trkpt lat="42.96265" lon="-0.25506">
        <ele>1511</ele>
        <time>2023-08-06T14:21:06+02:00</time>
      </trkpt>
      <trkpt lat="42.96261" lon="-0.25475">
        <ele>1512</ele>
        <time>2023-08-06T14:21:19+02:00</time>
      </trkpt>
      <trkpt lat="42.9626" lon="-0.25443">
        <ele>1512</ele>
        <time>2023-08-06T14:21:31+02:00</time>
      </trkpt>
      <trkpt lat="42.96268" lon="-0.25413">
        <ele>1513</ele>
        <time>2023-08-06T14:21:44+02:00</time>
      </trkpt>
      <trkpt lat="42.9628" lon="-0.25387">
        <ele>1512</ele>
        <time>2023-08-06T14:21:58+02:00</time>
      </trkpt>
      <trkpt lat="42.96293" lon="-0.25361">
        <ele>1516</ele>
        <time>2023-08-06T14:22:11+02:00</time>
      </trkpt>
      <trkpt lat="42.96296" lon="-0.25394">
        <ele>1522</ele>
        <time>2023-08-06T14:22:51+02:00</time>
      </trkpt>
      <trkpt lat="42.96288" lon="-0.25426">
        <ele>1525</ele>
        <time>2023-08-06T14:23:02+02:00</time>
      </trkpt>
      <trkpt lat="42.96307" lon="-0.25407">
        <ele>1525</ele>
        <time>2023-08-06T14:23:29+02:00</time>
      </trkpt>
      <trkpt lat="42.96318" lon="-0.25379">
        <ele>1527</ele>
        <time>2023-08-06T14:23:42+02:00</time>
      </trkpt>
      <trkpt lat="42.96328" lon="-0.25351">
        <ele>1532</ele>
        <time>2023-08-06T14:23:56+02:00</time>
      </trkpt>
      <trkpt lat="42.96343" lon="-0.25326">
        <ele>1539</ele>
        <time>2023-08-06T14:24:12+02:00</time>
      </trkpt>
      <trkpt lat="42.96363" lon="-0.25311">
        <ele>1541</ele>
        <time>2023-08-06T14:24:28+02:00</time>
      </trkpt>
      <trkpt lat="42.96374" lon="-0.2528">
        <ele>1542</ele>
        <time>2023-08-06T14:24:43+02:00</time>
      </trkpt>
      <trkpt lat="42.96383" lon="-0.25252">
        <ele>1533</ele>
        <time>2023-08-06T14:24:53+02:00</time>
      </trkpt>
      <trkpt lat="42.964" lon="-0.25232">
        <ele>1534</ele>
        <time>2023-08-06T14:25:09+02:00</time>
      </trkpt>
      <trkpt lat="42.96414" lon="-0.25257">
        <ele>1535</ele>
        <time>2023-08-06T14:25:28+02:00</time>
      </trkpt>
      <trkpt lat="42.96393" lon="-0.25266">
        <ele>1539</ele>
        <time>2023-08-06T14:25:41+02:00</time>
      </trkpt>
      <trkpt lat="42.96409" lon="-0.25288">
        <ele>1542</ele>
        <time>2023-08-06T14:25:54+02:00</time>
      </trkpt>
      <trkpt lat="42.96423" lon="-0.25313">
        <ele>1542</ele>
        <time>2023-08-06T14:26:12+02:00</time>
      </trkpt>
      <trkpt lat="42.96446" lon="-0.25317">
        <ele>1555</ele>
        <time>2023-08-06T14:26:28+02:00</time>
      </trkpt>
      <trkpt lat="42.96469" lon="-0.25306">
        <ele>1551</ele>
        <time>2023-08-06T14:26:39+02:00</time>
      </trkpt>
      <trkpt lat="42.96489" lon="-0.25292">
        <ele>1552</ele>
        <time>2023-08-06T14:26:51+02:00</time>
      </trkpt>
      <trkpt lat="42.96512" lon="-0.25289">
        <ele>1549</ele>
        <time>2023-08-06T14:27:05+02:00</time>
      </trkpt>
      <trkpt lat="42.96533" lon="-0.2528">
        <ele>1547</ele>
        <time>2023-08-06T14:27:21+02:00</time>
      </trkpt>
      <trkpt lat="42.96554" lon="-0.25265">
        <ele>1545</ele>
        <time>2023-08-06T14:27:35+02:00</time>
      </trkpt>
      <trkpt lat="42.96576" lon="-0.25254">
        <ele>1543</ele>
        <time>2023-08-06T14:27:50+02:00</time>
      </trkpt>
      <trkpt lat="42.96592" lon="-0.25232">
        <ele>1546</ele>
        <time>2023-08-06T14:28:04+02:00</time>
      </trkpt>
      <trkpt lat="42.96596" lon="-0.252">
        <ele>1549</ele>
        <time>2023-08-06T14:28:18+02:00</time>
      </trkpt>
      <trkpt lat="42.96602" lon="-0.25168">
        <ele>1547</ele>
        <time>2023-08-06T14:28:33+02:00</time>
      </trkpt>
      <trkpt lat="42.96605" lon="-0.25137">
        <ele>1548</ele>
        <time>2023-08-06T14:28:48+02:00</time>
      </trkpt>
      <trkpt lat="42.96601" lon="-0.25106">
        <ele>1550</ele>
        <time>2023-08-06T14:29:01+02:00</time>
      </trkpt>
      <trkpt lat="42.96601" lon="-0.25074">
        <ele>1545</ele>
        <time>2023-08-06T14:29:16+02:00</time>
      </trkpt>
      <trkpt lat="42.9661" lon="-0.25043">
        <ele>1545</ele>
        <time>2023-08-06T14:29:29+02:00</time>
      </trkpt>
      <trkpt lat="42.96619" lon="-0.25012">
        <ele>1548</ele>
        <time>2023-08-06T14:29:44+02:00</time>
      </trkpt>
      <trkpt lat="42.96636" lon="-0.24992">
        <ele>1548</ele>
        <time>2023-08-06T14:29:59+02:00</time>
      </trkpt>
      <trkpt lat="42.96655" lon="-0.24976">
        <ele>1547</ele>
        <time>2023-08-06T14:30:12+02:00</time>
      </trkpt>
      <trkpt lat="42.96676" lon="-0.24961">
        <ele>1550</ele>
        <time>2023-08-06T14:30:24+02:00</time>
      </trkpt>
      <trkpt lat="42.96697" lon="-0.2495">
        <ele>1550</ele>
        <time>2023-08-06T14:30:37+02:00</time>
      </trkpt>
      <trkpt lat="42.96719" lon="-0.24938">
        <ele>1550</ele>
        <time>2023-08-06T14:30:50+02:00</time>
      </trkpt>
      <trkpt lat="42.96738" lon="-0.24919">
        <ele>1550</ele>
        <time>2023-08-06T14:31:04+02:00</time>
      </trkpt>
      <trkpt lat="42.96745" lon="-0.24889">
        <ele>1552</ele>
        <time>2023-08-06T14:31:16+02:00</time>
      </trkpt>
      <trkpt lat="42.96752" lon="-0.24859">
        <ele>1551</ele>
        <time>2023-08-06T14:31:30+02:00</time>
      </trkpt>
      <trkpt lat="42.96763" lon="-0.2483">
        <ele>1552</ele>
        <time>2023-08-06T14:31:44+02:00</time>
      </trkpt>
      <trkpt lat="42.96781" lon="-0.24808">
        <ele>1550</ele>
        <time>2023-08-06T14:31:56+02:00</time>
      </trkpt>
      <trkpt lat="42.96803" lon="-0.24816">
        <ele>1553</ele>
        <time>2023-08-06T14:32:09+02:00</time>
      </trkpt>
      <trkpt lat="42.96823" lon="-0.24834">
        <ele>1555</ele>
        <time>2023-08-06T14:32:23+02:00</time>
      </trkpt>
      <trkpt lat="42.96845" lon="-0.24846">
        <ele>1555</ele>
        <time>2023-08-06T14:32:39+02:00</time>
      </trkpt>
      <trkpt lat="42.96869" lon="-0.24854">
        <ele>1559</ele>
        <time>2023-08-06T14:32:50+02:00</time>
      </trkpt>
      <trkpt lat="42.96889" lon="-0.24872">
        <ele>1558</ele>
        <time>2023-08-06T14:33:01+02:00</time>
      </trkpt>
      <trkpt lat="42.9691" lon="-0.24888">
        <ele>1557</ele>
        <time>2023-08-06T14:33:11+02:00</time>
      </trkpt>
      <trkpt lat="42.96932" lon="-0.24875">
        <ele>1561</ele>
        <time>2023-08-06T14:33:22+02:00</time>
      </trkpt>
      <trkpt lat="42.9695" lon="-0.24853">
        <ele>1564</ele>
        <time>2023-08-06T14:33:35+02:00</time>
      </trkpt>
      <trkpt lat="42.9697" lon="-0.24835">
        <ele>1564</ele>
        <time>2023-08-06T14:33:50+02:00</time>
      </trkpt>
      <trkpt lat="42.96983" lon="-0.24808">
        <ele>1564</ele>
        <time>2023-08-06T14:34:04+02:00</time>
      </trkpt>
      <trkpt lat="42.96992" lon="-0.24776">
        <ele>1561</ele>
        <time>2023-08-06T14:34:17+02:00</time>
      </trkpt>
      <trkpt lat="42.97002" lon="-0.24749">
        <ele>1563</ele>
        <time>2023-08-06T14:34:30+02:00</time>
      </trkpt>
      <trkpt lat="42.97023" lon="-0.24732">
        <ele>1565</ele>
        <time>2023-08-06T14:34:41+02:00</time>
      </trkpt>
      <trkpt lat="42.97045" lon="-0.24721">
        <ele>1568</ele>
        <time>2023-08-06T14:34:54+02:00</time>
      </trkpt>
      <trkpt lat="42.97065" lon="-0.24704">
        <ele>1572</ele>
        <time>2023-08-06T14:35:06+02:00</time>
      </trkpt>
      <trkpt lat="42.97073" lon="-0.24674">
        <ele>1569</ele>
        <time>2023-08-06T14:35:18+02:00</time>
      </trkpt>
      <trkpt lat="42.9707" lon="-0.24642">
        <ele>1569</ele>
        <time>2023-08-06T14:35:32+02:00</time>
      </trkpt>
      <trkpt lat="42.97061" lon="-0.24613">
        <ele>1569</ele>
        <time>2023-08-06T14:35:46+02:00</time>
      </trkpt>
      <trkpt lat="42.97054" lon="-0.24582">
        <ele>1567</ele>
        <time>2023-08-06T14:35:59+02:00</time>
      </trkpt>
      <trkpt lat="42.97075" lon="-0.24528">
        <ele>1566</ele>
        <time>2023-08-06T14:36:27+02:00</time>
      </trkpt>
      <trkpt lat="42.97086" lon="-0.24496">
        <ele>1566</ele>
        <time>2023-08-06T14:36:34+02:00</time>
      </trkpt>
      <trkpt lat="42.97094" lon="-0.24461">
        <ele>1568</ele>
        <time>2023-08-06T14:36:38+02:00</time>
      </trkpt>
      <trkpt lat="42.971" lon="-0.24426">
        <ele>1573</ele>
        <time>2023-08-06T14:36:42+02:00</time>
      </trkpt>
      <trkpt lat="42.97102" lon="-0.24394">
        <ele>1573</ele>
        <time>2023-08-06T14:36:47+02:00</time>
      </trkpt>
      <trkpt lat="42.97111" lon="-0.24363">
        <ele>1573</ele>
        <time>2023-08-06T14:36:59+02:00</time>
      </trkpt>
      <trkpt lat="42.97142" lon="-0.24325">
        <ele>1573</ele>
        <time>2023-08-06T14:37:24+02:00</time>
      </trkpt>
      <trkpt lat="42.97156" lon="-0.24349">
        <ele>1576</ele>
        <time>2023-08-06T14:37:35+02:00</time>
      </trkpt>
      <trkpt lat="42.97169" lon="-0.24377">
        <ele>1579</ele>
        <time>2023-08-06T14:37:46+02:00</time>
      </trkpt>
      <trkpt lat="42.97192" lon="-0.24375">
        <ele>1581</ele>
        <time>2023-08-06T14:37:57+02:00</time>
      </trkpt>
      <trkpt lat="42.97201" lon="-0.24345">
        <ele>1582</ele>
        <time>2023-08-06T14:38:09+02:00</time>
      </trkpt>
      <trkpt lat="42.97216" lon="-0.24321">
        <ele>1586</ele>
        <time>2023-08-06T14:38:21+02:00</time>
      </trkpt>
      <trkpt lat="42.9724" lon="-0.24321">
        <ele>1588</ele>
        <time>2023-08-06T14:38:32+02:00</time>
      </trkpt>
      <trkpt lat="42.97264" lon="-0.24321">
        <ele>1589</ele>
        <time>2023-08-06T14:38:43+02:00</time>
      </trkpt>
      <trkpt lat="42.97281" lon="-0.24341">
        <ele>1588</ele>
        <time>2023-08-06T14:38:58+02:00</time>
      </trkpt>
      <trkpt lat="42.97295" lon="-0.24366">
        <ele>1585</ele>
        <time>2023-08-06T14:39:12+02:00</time>
      </trkpt>
      <trkpt lat="42.97315" lon="-0.24382">
        <ele>1583</ele>
        <time>2023-08-06T14:39:26+02:00</time>
      </trkpt>
      <trkpt lat="42.97337" lon="-0.24394">
        <ele>1581</ele>
        <time>2023-08-06T14:39:40+02:00</time>
      </trkpt>
      <trkpt lat="42.97359" lon="-0.24402">
        <ele>1577</ele>
        <time>2023-08-06T14:39:54+02:00</time>
      </trkpt>
      <trkpt lat="42.9738" lon="-0.24417">
        <ele>1578</ele>
        <time>2023-08-06T14:40:08+02:00</time>
      </trkpt>
      <trkpt lat="42.97388" lon="-0.24447">
        <ele>1579</ele>
        <time>2023-08-06T14:40:24+02:00</time>
      </trkpt>
      <trkpt lat="42.97404" lon="-0.24423">
        <ele>1574</ele>
        <time>2023-08-06T14:40:38+02:00</time>
      </trkpt>
      <trkpt lat="42.97413" lon="-0.24394">
        <ele>1573</ele>
        <time>2023-08-06T14:40:51+02:00</time>
      </trkpt>
      <trkpt lat="42.97409" lon="-0.24363">
        <ele>1567</ele>
        <time>2023-08-06T14:41:06+02:00</time>
      </trkpt>
      <trkpt lat="42.97395" lon="-0.24337">
        <ele>1561</ele>
        <time>2023-08-06T14:41:22+02:00</time>
      </trkpt>
      <trkpt lat="42.97402" lon="-0.24306">
        <ele>1553</ele>
        <time>2023-08-06T14:41:38+02:00</time>
      </trkpt>
      <trkpt lat="42.97392" lon="-0.24276">
        <ele>1548</ele>
        <time>2023-08-06T14:41:52+02:00</time>
      </trkpt>
      <trkpt lat="42.97394" lon="-0.24245">
        <ele>1544</ele>
        <time>2023-08-06T14:42:07+02:00</time>
      </trkpt>
      <trkpt lat="42.97391" lon="-0.24214">
        <ele>1538</ele>
        <time>2023-08-06T14:42:23+02:00</time>
      </trkpt>
      <trkpt lat="42.97392" lon="-0.24182">
        <ele>1532</ele>
        <time>2023-08-06T14:42:38+02:00</time>
      </trkpt>
      <trkpt lat="42.97382" lon="-0.24153">
        <ele>1525</ele>
        <time>2023-08-06T14:42:51+02:00</time>
      </trkpt>
      <trkpt lat="42.97369" lon="-0.24126">
        <ele>1520</ele>
        <time>2023-08-06T14:43:06+02:00</time>
      </trkpt>
      <trkpt lat="42.97365" lon="-0.24094">
        <ele>1516</ele>
        <time>2023-08-06T14:43:19+02:00</time>
      </trkpt>
      <trkpt lat="42.97363" lon="-0.24061">
        <ele>1514</ele>
        <time>2023-08-06T14:43:35+02:00</time>
      </trkpt>
      <trkpt lat="42.97352" lon="-0.24032">
        <ele>1508</ele>
        <time>2023-08-06T14:43:48+02:00</time>
      </trkpt>
      <trkpt lat="42.97354" lon="-0.24001">
        <ele>1504</ele>
        <time>2023-08-06T14:44:02+02:00</time>
      </trkpt>
      <trkpt lat="42.97357" lon="-0.23969">
        <ele>1503</ele>
        <time>2023-08-06T14:44:18+02:00</time>
      </trkpt>
      <trkpt lat="42.97373" lon="-0.23945">
        <ele>1501</ele>
        <time>2023-08-06T14:44:31+02:00</time>
      </trkpt>
      <trkpt lat="42.97396" lon="-0.2394">
        <ele>1499</ele>
        <time>2023-08-06T14:44:45+02:00</time>
      </trkpt>
      <trkpt lat="42.97419" lon="-0.23951">
        <ele>1500</ele>
        <time>2023-08-06T14:44:59+02:00</time>
      </trkpt>
      <trkpt lat="42.97442" lon="-0.2395">
        <ele>1500</ele>
        <time>2023-08-06T14:45:13+02:00</time>
      </trkpt>
      <trkpt lat="42.97466" lon="-0.23944">
        <ele>1496</ele>
        <time>2023-08-06T14:45:27+02:00</time>
      </trkpt>
      <trkpt lat="42.97487" lon="-0.2393">
        <ele>1492</ele>
        <time>2023-08-06T14:45:42+02:00</time>
      </trkpt>
      <trkpt lat="42.97504" lon="-0.23909">
        <ele>1492</ele>
        <time>2023-08-06T14:45:55+02:00</time>
      </trkpt>
      <trkpt lat="42.97517" lon="-0.23884">
        <ele>1488</ele>
        <time>2023-08-06T14:46:09+02:00</time>
      </trkpt>
      <trkpt lat="42.97526" lon="-0.23854">
        <ele>1485</ele>
        <time>2023-08-06T14:46:25+02:00</time>
      </trkpt>
      <trkpt lat="42.97539" lon="-0.23828">
        <ele>1480</ele>
        <time>2023-08-06T14:46:38+02:00</time>
      </trkpt>
      <trkpt lat="42.9755" lon="-0.238">
        <ele>1477</ele>
        <time>2023-08-06T14:46:50+02:00</time>
      </trkpt>
      <trkpt lat="42.97558" lon="-0.23771">
        <ele>1477</ele>
        <time>2023-08-06T14:47:03+02:00</time>
      </trkpt>
      <trkpt lat="42.97566" lon="-0.23742">
        <ele>1475</ele>
        <time>2023-08-06T14:47:16+02:00</time>
      </trkpt>
      <trkpt lat="42.97554" lon="-0.23681">
        <ele>1470</ele>
        <time>2023-08-06T14:47:45+02:00</time>
      </trkpt>
      <trkpt lat="42.97548" lon="-0.23651">
        <ele>1469</ele>
        <time>2023-08-06T14:48:00+02:00</time>
      </trkpt>
      <trkpt lat="42.97545" lon="-0.23619">
        <ele>1470</ele>
        <time>2023-08-06T14:48:49+02:00</time>
      </trkpt>
      <trkpt lat="42.97561" lon="-0.23595">
        <ele>1466</ele>
        <time>2023-08-06T14:49:02+02:00</time>
      </trkpt>
      <trkpt lat="42.97573" lon="-0.23568">
        <ele>1465</ele>
        <time>2023-08-06T14:49:17+02:00</time>
      </trkpt>
      <trkpt lat="42.9759" lon="-0.23546">
        <ele>1461</ele>
        <time>2023-08-06T14:49:31+02:00</time>
      </trkpt>
      <trkpt lat="42.97608" lon="-0.23525">
        <ele>1460</ele>
        <time>2023-08-06T14:49:46+02:00</time>
      </trkpt>
      <trkpt lat="42.97624" lon="-0.23503">
        <ele>1455</ele>
        <time>2023-08-06T14:49:59+02:00</time>
      </trkpt>
      <trkpt lat="42.97642" lon="-0.23483">
        <ele>1453</ele>
        <time>2023-08-06T14:50:13+02:00</time>
      </trkpt>
      <trkpt lat="42.97662" lon="-0.23466">
        <ele>1451</ele>
        <time>2023-08-06T14:50:28+02:00</time>
      </trkpt>
      <trkpt lat="42.97681" lon="-0.23449">
        <ele>1449</ele>
        <time>2023-08-06T14:50:42+02:00</time>
      </trkpt>
      <trkpt lat="42.97698" lon="-0.23426">
        <ele>1446</ele>
        <time>2023-08-06T14:50:57+02:00</time>
      </trkpt>
      <trkpt lat="42.97717" lon="-0.23408">
        <ele>1440</ele>
        <time>2023-08-06T14:51:14+02:00</time>
      </trkpt>
      <trkpt lat="42.97732" lon="-0.23384">
        <ele>1439</ele>
        <time>2023-08-06T14:51:41+02:00</time>
      </trkpt>
      <trkpt lat="42.97741" lon="-0.23354">
        <ele>1432</ele>
        <time>2023-08-06T14:51:57+02:00</time>
      </trkpt>
      <trkpt lat="42.97743" lon="-0.23322">
        <ele>1426</ele>
        <time>2023-08-06T14:52:12+02:00</time>
      </trkpt>
      <trkpt lat="42.97741" lon="-0.23291">
        <ele>1421</ele>
        <time>2023-08-06T14:52:25+02:00</time>
      </trkpt>
      <trkpt lat="42.97734" lon="-0.23262">
        <ele>1419</ele>
        <time>2023-08-06T14:52:38+02:00</time>
      </trkpt>
      <trkpt lat="42.97729" lon="-0.2323">
        <ele>1414</ele>
        <time>2023-08-06T14:52:50+02:00</time>
      </trkpt>
      <trkpt lat="42.97724" lon="-0.232">
        <ele>1413</ele>
        <time>2023-08-06T14:53:07+02:00</time>
      </trkpt>
      <trkpt lat="42.97708" lon="-0.23178">
        <ele>1417</ele>
        <time>2023-08-06T14:53:20+02:00</time>
      </trkpt>
      <trkpt lat="42.97691" lon="-0.23156">
        <ele>1421</ele>
        <time>2023-08-06T14:53:32+02:00</time>
      </trkpt>
      <trkpt lat="42.97671" lon="-0.23141">
        <ele>1422</ele>
        <time>2023-08-06T14:53:46+02:00</time>
      </trkpt>
      <trkpt lat="42.97653" lon="-0.23118">
        <ele>1421</ele>
        <time>2023-08-06T14:54:01+02:00</time>
      </trkpt>
      <trkpt lat="42.97633" lon="-0.23104">
        <ele>1418</ele>
        <time>2023-08-06T14:54:16+02:00</time>
      </trkpt>
      <trkpt lat="42.97611" lon="-0.23106">
        <ele>1415</ele>
        <time>2023-08-06T14:54:35+02:00</time>
      </trkpt>
      <trkpt lat="42.9759" lon="-0.2309">
        <ele>1410</ele>
        <time>2023-08-06T14:54:50+02:00</time>
      </trkpt>
      <trkpt lat="42.97579" lon="-0.23063">
        <ele>1404</ele>
        <time>2023-08-06T14:55:05+02:00</time>
      </trkpt>
      <trkpt lat="42.97564" lon="-0.23038">
        <ele>1399</ele>
        <time>2023-08-06T14:55:21+02:00</time>
      </trkpt>
      <trkpt lat="42.97557" lon="-0.23009">
        <ele>1395</ele>
        <time>2023-08-06T14:55:35+02:00</time>
      </trkpt>
      <trkpt lat="42.97551" lon="-0.22979">
        <ele>1389</ele>
        <time>2023-08-06T14:55:51+02:00</time>
      </trkpt>
      <trkpt lat="42.97538" lon="-0.22953">
        <ele>1389</ele>
        <time>2023-08-06T14:56:08+02:00</time>
      </trkpt>
      <trkpt lat="42.97523" lon="-0.22928">
        <ele>1390</ele>
        <time>2023-08-06T14:56:24+02:00</time>
      </trkpt>
      <trkpt lat="42.9751" lon="-0.22903">
        <ele>1379</ele>
        <time>2023-08-06T14:56:41+02:00</time>
      </trkpt>
      <trkpt lat="42.97495" lon="-0.22877">
        <ele>1372</ele>
        <time>2023-08-06T14:57:00+02:00</time>
      </trkpt>
      <trkpt lat="42.97494" lon="-0.22845">
        <ele>1370</ele>
        <time>2023-08-06T14:57:17+02:00</time>
      </trkpt>
      <trkpt lat="42.97483" lon="-0.22817">
        <ele>1356</ele>
        <time>2023-08-06T14:57:42+02:00</time>
      </trkpt>
      <trkpt lat="42.97464" lon="-0.22801">
        <ele>1347</ele>
        <time>2023-08-06T14:58:08+02:00</time>
      </trkpt>
      <trkpt lat="42.97445" lon="-0.22783">
        <ele>1337</ele>
        <time>2023-08-06T14:58:48+02:00</time>
      </trkpt>
      <trkpt lat="42.97431" lon="-0.22808">
        <ele>1332</ele>
        <time>2023-08-06T14:59:12+02:00</time>
      </trkpt>
      <trkpt lat="42.97413" lon="-0.22789">
        <ele>1321</ele>
        <time>2023-08-06T14:59:40+02:00</time>
      </trkpt>
      <trkpt lat="42.97396" lon="-0.22812">
        <ele>1317</ele>
        <time>2023-08-06T14:59:56+02:00</time>
      </trkpt>
      <trkpt lat="42.97382" lon="-0.22787">
        <ele>1307</ele>
        <time>2023-08-06T15:00:50+02:00</time>
      </trkpt>
      <trkpt lat="42.97367" lon="-0.22762">
        <ele>1305</ele>
        <time>2023-08-06T15:01:10+02:00</time>
      </trkpt>
      <trkpt lat="42.97358" lon="-0.22733">
        <ele>1301</ele>
        <time>2023-08-06T15:01:29+02:00</time>
      </trkpt>
      <trkpt lat="42.97351" lon="-0.22703">
        <ele>1300</ele>
        <time>2023-08-06T15:01:43+02:00</time>
      </trkpt>
      <trkpt lat="42.97348" lon="-0.22671">
        <ele>1290</ele>
        <time>2023-08-06T15:02:18+02:00</time>
      </trkpt>
      <trkpt lat="42.97345" lon="-0.22641">
        <ele>1290</ele>
        <time>2023-08-06T15:02:32+02:00</time>
      </trkpt>
      <trkpt lat="42.9735" lon="-0.22609">
        <ele>1289</ele>
        <time>2023-08-06T15:02:56+02:00</time>
      </trkpt>
      <trkpt lat="42.97352" lon="-0.22576">
        <ele>1281</ele>
        <time>2023-08-06T15:03:10+02:00</time>
      </trkpt>
      <trkpt lat="42.97354" lon="-0.22545">
        <ele>1278</ele>
        <time>2023-08-06T15:03:23+02:00</time>
      </trkpt>
      <trkpt lat="42.97338" lon="-0.22523">
        <ele>1276</ele>
        <time>2023-08-06T15:03:39+02:00</time>
      </trkpt>
      <trkpt lat="42.97321" lon="-0.22502">
        <ele>1272</ele>
        <time>2023-08-06T15:03:57+02:00</time>
      </trkpt>
      <trkpt lat="42.97281" lon="-0.22478">
        <ele>1270</ele>
        <time>2023-08-06T15:04:31+02:00</time>
      </trkpt>
      <trkpt lat="42.97257" lon="-0.22482">
        <ele>1278</ele>
        <time>2023-08-06T15:04:41+02:00</time>
      </trkpt>
      <trkpt lat="42.97236" lon="-0.22469">
        <ele>1275</ele>
        <time>2023-08-06T15:04:57+02:00</time>
      </trkpt>
      <trkpt lat="42.97223" lon="-0.22444">
        <ele>1267</ele>
        <time>2023-08-06T15:05:17+02:00</time>
      </trkpt>
      <trkpt lat="42.97206" lon="-0.22421">
        <ele>1268</ele>
        <time>2023-08-06T15:05:31+02:00</time>
      </trkpt>
      <trkpt lat="42.97188" lon="-0.22403">
        <ele>1263</ele>
        <time>2023-08-06T15:05:45+02:00</time>
      </trkpt>
      <trkpt lat="42.97172" lon="-0.22379">
        <ele>1259</ele>
        <time>2023-08-06T15:06:20+02:00</time>
      </trkpt>
      <trkpt lat="42.97153" lon="-0.22358">
        <ele>1256</ele>
        <time>2023-08-06T15:06:39+02:00</time>
      </trkpt>
      <trkpt lat="42.97131" lon="-0.22345">
        <ele>1247</ele>
        <time>2023-08-06T15:07:01+02:00</time>
      </trkpt>
      <trkpt lat="42.97111" lon="-0.22331">
        <ele>1245</ele>
        <time>2023-08-06T15:07:20+02:00</time>
      </trkpt>
      <trkpt lat="42.97092" lon="-0.22312">
        <ele>1245</ele>
        <time>2023-08-06T15:07:36+02:00</time>
      </trkpt>
      <trkpt lat="42.9707" lon="-0.22306">
        <ele>1245</ele>
        <time>2023-08-06T15:08:58+02:00</time>
      </trkpt>
      <trkpt lat="42.97049" lon="-0.22289">
        <ele>1239</ele>
        <time>2023-08-06T15:10:48+02:00</time>
      </trkpt>
      <trkpt lat="42.97027" lon="-0.2228">
        <ele>1239</ele>
        <time>2023-08-06T15:11:03+02:00</time>
      </trkpt>
      <trkpt lat="42.97004" lon="-0.22279">
        <ele>1240</ele>
        <time>2023-08-06T15:11:16+02:00</time>
      </trkpt>
      <trkpt lat="42.96982" lon="-0.22269">
        <ele>1233</ele>
        <time>2023-08-06T15:11:32+02:00</time>
      </trkpt>
      <trkpt lat="42.96961" lon="-0.22256">
        <ele>1223</ele>
        <time>2023-08-06T15:11:45+02:00</time>
      </trkpt>
      <trkpt lat="42.9694" lon="-0.2224">
        <ele>1222</ele>
        <time>2023-08-06T15:11:59+02:00</time>
      </trkpt>
      <trkpt lat="42.96921" lon="-0.22219">
        <ele>1214</ele>
        <time>2023-08-06T15:12:12+02:00</time>
      </trkpt>
      <trkpt lat="42.96904" lon="-0.22197">
        <ele>1213</ele>
        <time>2023-08-06T15:12:26+02:00</time>
      </trkpt>
      <trkpt lat="42.96887" lon="-0.22173">
        <ele>1212</ele>
        <time>2023-08-06T15:12:41+02:00</time>
      </trkpt>
      <trkpt lat="42.96874" lon="-0.22147">
        <ele>1213</ele>
        <time>2023-08-06T15:12:55+02:00</time>
      </trkpt>
      <trkpt lat="42.96859" lon="-0.22124">
        <ele>1213</ele>
        <time>2023-08-06T15:13:09+02:00</time>
      </trkpt>
      <trkpt lat="42.96845" lon="-0.22097">
        <ele>1214</ele>
        <time>2023-08-06T15:13:23+02:00</time>
      </trkpt>
      <trkpt lat="42.96835" lon="-0.2207">
        <ele>1208</ele>
        <time>2023-08-06T15:13:39+02:00</time>
      </trkpt>
      <trkpt lat="42.96825" lon="-0.2204">
        <ele>1205</ele>
        <time>2023-08-06T15:13:52+02:00</time>
      </trkpt>
      <trkpt lat="42.96817" lon="-0.2201">
        <ele>1201</ele>
        <time>2023-08-06T15:14:05+02:00</time>
      </trkpt>
      <trkpt lat="42.96807" lon="-0.21982">
        <ele>1205</ele>
        <time>2023-08-06T15:14:20+02:00</time>
      </trkpt>
      <trkpt lat="42.96797" lon="-0.21953">
        <ele>1206</ele>
        <time>2023-08-06T15:14:34+02:00</time>
      </trkpt>
      <trkpt lat="42.96784" lon="-0.21927">
        <ele>1205</ele>
        <time>2023-08-06T15:14:48+02:00</time>
      </trkpt>
      <trkpt lat="42.96772" lon="-0.21901">
        <ele>1206</ele>
        <time>2023-08-06T15:15:03+02:00</time>
      </trkpt>
      <trkpt lat="42.9676" lon="-0.21873">
        <ele>1198</ele>
        <time>2023-08-06T15:15:20+02:00</time>
      </trkpt>
      <trkpt lat="42.96748" lon="-0.21846">
        <ele>1193</ele>
        <time>2023-08-06T15:16:01+02:00</time>
      </trkpt>
      <trkpt lat="42.96733" lon="-0.2182">
        <ele>1194</ele>
        <time>2023-08-06T15:16:20+02:00</time>
      </trkpt>
      <trkpt lat="42.96715" lon="-0.21798">
        <ele>1183</ele>
        <time>2023-08-06T15:16:36+02:00</time>
      </trkpt>
      <trkpt lat="42.96703" lon="-0.21771">
        <ele>1179</ele>
        <time>2023-08-06T15:16:53+02:00</time>
      </trkpt>
      <trkpt lat="42.96698" lon="-0.21739">
        <ele>1186</ele>
        <time>2023-08-06T15:17:12+02:00</time>
      </trkpt>
      <trkpt lat="42.96694" lon="-0.21708">
        <ele>1171</ele>
        <time>2023-08-06T15:17:24+02:00</time>
      </trkpt>
      <trkpt lat="42.96695" lon="-0.21677">
        <ele>1160</ele>
        <time>2023-08-06T15:17:52+02:00</time>
      </trkpt>
      <trkpt lat="42.96679" lon="-0.21655">
        <ele>1151</ele>
        <time>2023-08-06T15:18:14+02:00</time>
      </trkpt>
      <trkpt lat="42.9666" lon="-0.21635">
        <ele>1142</ele>
        <time>2023-08-06T15:18:44+02:00</time>
      </trkpt>
      <trkpt lat="42.96642" lon="-0.21615">
        <ele>1132</ele>
        <time>2023-08-06T15:19:12+02:00</time>
      </trkpt>
      <trkpt lat="42.9662" lon="-0.21601">
        <ele>1128</ele>
        <time>2023-08-06T15:19:38+02:00</time>
      </trkpt>
      <trkpt lat="42.96597" lon="-0.21593">
        <ele>1120</ele>
        <time>2023-08-06T15:20:01+02:00</time>
      </trkpt>
      <trkpt lat="42.96579" lon="-0.21574">
        <ele>1113</ele>
        <time>2023-08-06T15:20:24+02:00</time>
      </trkpt>
      <trkpt lat="42.96561" lon="-0.21553">
        <ele>1111</ele>
        <time>2023-08-06T15:20:41+02:00</time>
      </trkpt>
      <trkpt lat="42.96543" lon="-0.21534">
        <ele>1106</ele>
        <time>2023-08-06T15:20:56+02:00</time>
      </trkpt>
      <trkpt lat="42.96525" lon="-0.21516">
        <ele>1098</ele>
        <time>2023-08-06T15:21:12+02:00</time>
      </trkpt>
      <trkpt lat="42.96512" lon="-0.21489">
        <ele>1094</ele>
        <time>2023-08-06T15:21:33+02:00</time>
      </trkpt>
      <trkpt lat="42.96495" lon="-0.21469">
        <ele>1089</ele>
        <time>2023-08-06T15:21:47+02:00</time>
      </trkpt>
      <trkpt lat="42.96482" lon="-0.21443">
        <ele>1077</ele>
        <time>2023-08-06T15:22:08+02:00</time>
      </trkpt>
      <trkpt lat="42.96471" lon="-0.21415">
        <ele>1072</ele>
        <time>2023-08-06T15:22:32+02:00</time>
      </trkpt>
      <trkpt lat="42.96463" lon="-0.21384">
        <ele>1067</ele>
        <time>2023-08-06T15:22:46+02:00</time>
      </trkpt>
      <trkpt lat="42.96449" lon="-0.21358">
        <ele>1062</ele>
        <time>2023-08-06T15:23:03+02:00</time>
      </trkpt>
      <trkpt lat="42.96439" lon="-0.2133">
        <ele>1056</ele>
        <time>2023-08-06T15:23:18+02:00</time>
      </trkpt>
      <trkpt lat="42.9642" lon="-0.21311">
        <ele>1046</ele>
        <time>2023-08-06T15:23:32+02:00</time>
      </trkpt>
      <trkpt lat="42.96412" lon="-0.21281">
        <ele>1046</ele>
        <time>2023-08-06T15:23:48+02:00</time>
      </trkpt>
      <trkpt lat="42.96394" lon="-0.21223">
        <ele>1043</ele>
        <time>2023-08-06T15:24:20+02:00</time>
      </trkpt>
      <trkpt lat="42.96389" lon="-0.21192">
        <ele>1037</ele>
        <time>2023-08-06T15:24:35+02:00</time>
      </trkpt>
      <trkpt lat="42.96381" lon="-0.21162">
        <ele>1031</ele>
        <time>2023-08-06T15:24:47+02:00</time>
      </trkpt>
      <trkpt lat="42.96376" lon="-0.21131">
        <ele>1031</ele>
        <time>2023-08-06T15:25:03+02:00</time>
      </trkpt>
      <trkpt lat="42.96375" lon="-0.21101">
        <ele>1029</ele>
        <time>2023-08-06T15:25:16+02:00</time>
      </trkpt>
      <trkpt lat="42.96372" lon="-0.21068">
        <ele>1023</ele>
        <time>2023-08-06T15:25:31+02:00</time>
      </trkpt>
      <trkpt lat="42.96368" lon="-0.21038">
        <ele>1021</ele>
        <time>2023-08-06T15:25:45+02:00</time>
      </trkpt>
      <trkpt lat="42.96364" lon="-0.21007">
        <ele>1019</ele>
        <time>2023-08-06T15:25:58+02:00</time>
      </trkpt>
      <trkpt lat="42.96347" lon="-0.20986">
        <ele>1013</ele>
        <time>2023-08-06T15:38:38+02:00</time>
      </trkpt>
      <trkpt lat="42.96333" lon="-0.2096">
        <ele>1012</ele>
        <time>2023-08-06T15:38:55+02:00</time>
      </trkpt>
      <trkpt lat="42.96324" lon="-0.20931">
        <ele>1005</ele>
        <time>2023-08-06T15:39:12+02:00</time>
      </trkpt>
      <trkpt lat="42.96308" lon="-0.20907">
        <ele>995</ele>
        <time>2023-08-06T15:39:30+02:00</time>
      </trkpt>
      <trkpt lat="42.96295" lon="-0.20847">
        <ele>978</ele>
        <time>2023-08-06T15:40:10+02:00</time>
      </trkpt>
      <trkpt lat="42.96281" lon="-0.20823">
        <ele>973</ele>
        <time>2023-08-06T15:40:48+02:00</time>
      </trkpt>
      <trkpt lat="42.96268" lon="-0.20739">
        <ele>899.1</ele>
      </trkpt>
      <trkpt lat="42.96269" lon="-0.20685">
        <ele>891.5</ele>
      </trkpt>
      <trkpt lat="42.96272" lon="-0.20658">
        <ele>889</ele>
      </trkpt>
      <trkpt lat="42.96259" lon="-0.20631">
        <ele>888.1</ele>
      </trkpt>
      <trkpt lat="42.96262" lon="-0.20598">
        <ele>885.1</ele>
      </trkpt>
      <trkpt lat="42.96274" lon="-0.20554">
        <ele>880.2</ele>
      </trkpt>
      <trkpt lat="42.96271" lon="-0.20526">
        <ele>877.1</ele>
      </trkpt>
      <trkpt lat="42.9627" lon="-0.20494">
        <ele>873.1</ele>
      </trkpt>
      <trkpt lat="42.96264" lon="-0.20461">
        <ele>869.9</ele>
      </trkpt>
      <trkpt lat="42.96258" lon="-0.2044">
        <ele>868.8</ele>
      </trkpt>
      <trkpt lat="42.96322" lon="-0.20368">
        <ele>864.8</ele>
      </trkpt>
      <trkpt lat="42.96391" lon="-0.20324">
        <ele>862.7</ele>
      </trkpt>
      <trkpt lat="42.96392" lon="-0.20264">
        <ele>860.6</ele>
      </trkpt>
      <trkpt lat="42.96448" lon="-0.20196">
        <ele>858.1</ele>
      </trkpt>
      <trkpt lat="42.96468" lon="-0.20175">
        <ele>857.3</ele>
      </trkpt>
      <trkpt lat="42.96514" lon="-0.20161">
        <ele>856.8</ele>
      </trkpt>
      <trkpt lat="42.96533" lon="-0.20142">
        <ele>856.1</ele>
      </trkpt>
      <trkpt lat="42.96542" lon="-0.20117">
        <ele>855.2</ele>
      </trkpt>
      <trkpt lat="42.96523" lon="-0.20078">
        <ele>854</ele>
      </trkpt>
      <trkpt lat="42.965" lon="-0.20048">
        <ele>853.7</ele>
      </trkpt>
      <trkpt lat="42.96473" lon="-0.19989">
        <ele>852</ele>
      </trkpt>
      <trkpt lat="42.9645" lon="-0.19928">
        <ele>851.9</ele>
      </trkpt>
      <trkpt lat="42.96429" lon="-0.19874">
        <ele>851.3</ele>
      </trkpt>
      <trkpt lat="42.96401" lon="-0.19823">
        <ele>850.6</ele>
      </trkpt>
      <trkpt lat="42.96346" lon="-0.1975">
        <ele>850.5</ele>
        <time>2023-08-06T09:38:44+02:00</time>
      </trkpt>
    </trkseg>
  </trk>
</gpx>